FIN1 EFHK-KLAX
Flight info
| Callsign | FIN1 |
|---|---|
| Flight time | N/A |
| Altitude | 36000 |
| Route | TEVRU Y75 NEPIX DCT GOMAV DCT OLOLI/N0499F380 DCT 75N020E 80N010E 82N000E/M084F380 DCT PELRI DCT 84N080W/N0490F380 83N090W 81N100W/N0491F400 76N110W 70N115W/N0479F390 65N117W/N0484F410 60N118W DCT YQU DCT PARQE DCT YDC DCT LKV DCT SHIMR Q9 REBRG DCT IRNMN IRNMN2 |
| Aircraft | A359/H-SDE2E3GHIJ3J4J5LM1ORWXY/LB1D1 |
Departure
| Time | 2026-04-25 21:22 |
|---|---|
| Airport | Helsinki Vantaa Airport (EFHK) |
Arrival
| Time | N/A |
|---|---|
| Airport | Los Angeles International Airport (KLAX) |
| Time | Latitude | Longitude | Altitude | Speed | Heading |
|---|---|---|---|---|---|
| 2026-04-25 21:12 | 60.31230 | 24.95742 | 173 ft | 0 kts | 227° |
| 2026-04-25 21:12 | 60.31200 | 24.95678 | 173 ft | 16 kts | 227° |
| 2026-04-25 21:12 | 60.31169 | 24.95557 | 173 ft | 14 kts | 278° |
| 2026-04-25 21:13 | 60.31248 | 24.95363 | 172 ft | 13 kts | 316° |
| 2026-04-25 21:13 | 60.31314 | 24.95236 | 172 ft | 13 kts | 316° |
| 2026-04-25 21:13 | 60.31381 | 24.95118 | 173 ft | 13 kts | 318° |
| 2026-04-25 21:13 | 60.31438 | 24.94997 | 174 ft | 11 kts | 313° |
| 2026-04-25 21:14 | 60.31490 | 24.95002 | 174 ft | 9 kts | 33° |
| 2026-04-25 21:14 | 60.31543 | 24.95111 | 176 ft | 11 kts | 46° |
| 2026-04-25 21:14 | 60.31614 | 24.95262 | 176 ft | 24 kts | 47° |
| 2026-04-25 21:14 | 60.31730 | 24.95517 | 177 ft | 25 kts | 49° |
| 2026-04-25 21:15 | 60.31847 | 24.95777 | 175 ft | 25 kts | 47° |
| 2026-04-25 21:15 | 60.31965 | 24.96035 | 176 ft | 25 kts | 47° |
| 2026-04-25 21:15 | 60.32083 | 24.96296 | 174 ft | 25 kts | 48° |
| 2026-04-25 21:15 | 60.32200 | 24.96557 | 174 ft | 25 kts | 47° |
| 2026-04-25 21:16 | 60.32231 | 24.96625 | 174 ft | 13 kts | 47° |
| 2026-04-25 21:16 | 60.32289 | 24.96755 | 172 ft | 0 kts | 50° |
| 2026-04-25 21:16 | 60.32274 | 24.96872 | 171 ft | 17 kts | 141° |
| 2026-04-25 21:16 | 60.32172 | 24.96989 | 172 ft | 17 kts | 154° |
| 2026-04-25 21:17 | 60.32063 | 24.97099 | 172 ft | 18 kts | 153° |
| 2026-04-25 21:17 | 60.31945 | 24.97222 | 170 ft | 20 kts | 152° |
| 2026-04-25 21:17 | 60.31812 | 24.97360 | 167 ft | 23 kts | 153° |
| 2026-04-25 21:17 | 60.31662 | 24.97515 | 165 ft | 25 kts | 153° |
| 2026-04-25 21:18 | 60.31497 | 24.97685 | 162 ft | 27 kts | 153° |
| 2026-04-25 21:18 | 60.31343 | 24.97841 | 163 ft | 20 kts | 153° |
| 2026-04-25 21:18 | 60.31214 | 24.97973 | 165 ft | 21 kts | 153° |
| 2026-04-25 21:18 | 60.31080 | 24.98110 | 164 ft | 23 kts | 153° |
| 2026-04-25 21:19 | 60.30938 | 24.98239 | 164 ft | 23 kts | 156° |
| 2026-04-25 21:19 | 60.30822 | 24.98340 | 165 ft | 16 kts | 156° |
| 2026-04-25 21:19 | 60.30714 | 24.98433 | 164 ft | 18 kts | 156° |
| 2026-04-25 21:19 | 60.30671 | 24.98644 | 162 ft | 18 kts | 70° |
| 2026-04-25 21:20 | 60.30691 | 24.98722 | 163 ft | 8 kts | 61° |
| 2026-04-25 21:20 | 60.30725 | 24.98783 | 165 ft | 9 kts | 14° |
| 2026-04-25 21:20 | 60.30779 | 24.98754 | 164 ft | 0 kts | 333° |
| 2026-04-25 21:21 | 60.30809 | 24.98723 | 163 ft | 20 kts | 333° |
| 2026-04-25 21:21 | 60.31121 | 24.98400 | 164 ft | 78 kts | 333° |
| 2026-04-25 21:21 | 60.31753 | 24.97756 | 160 ft | 125 kts | 333° |
| 2026-04-25 21:21 | 60.32577 | 24.96900 | 532 ft | 132 kts | 331° |
| 2026-04-25 21:22 | 60.33374 | 24.96092 | 1222 ft | 125 kts | 335° |
| 2026-04-25 21:22 | 60.34163 | 24.95286 | 1630 ft | 135 kts | 337° |
| 2026-04-25 21:22 | 60.35056 | 24.94381 | 1922 ft | 152 kts | 338° |
| 2026-04-25 21:22 | 60.36057 | 24.93365 | 2189 ft | 169 kts | 338° |
| 2026-04-25 21:23 | 60.37178 | 24.92221 | 2456 ft | 190 kts | 338° |
| 2026-04-25 21:23 | 60.38402 | 24.90959 | 2904 ft | 203 kts | 339° |
| 2026-04-25 21:23 | 60.39661 | 24.89652 | 3454 ft | 210 kts | 339° |
| 2026-04-25 21:23 | 60.40980 | 24.88280 | 4058 ft | 216 kts | 339° |
| 2026-04-25 21:24 | 60.42359 | 24.86942 | 4592 ft | 221 kts | 345° |
| 2026-04-25 21:24 | 60.43873 | 24.86313 | 5153 ft | 224 kts | 358° |
| 2026-04-25 21:24 | 60.45450 | 24.86120 | 5755 ft | 229 kts | 359° |
| 2026-04-25 21:24 | 60.47052 | 24.85985 | 6305 ft | 236 kts | 359° |
| 2026-04-25 21:25 | 60.48708 | 24.86001 | 6935 ft | 240 kts | 1° |
| 2026-04-25 21:25 | 60.50385 | 24.86035 | 7625 ft | 243 kts | 2° |
| 2026-04-25 21:25 | 60.52089 | 24.86075 | 8296 ft | 247 kts | 2° |
| 2026-04-25 21:25 | 60.53834 | 24.86129 | 8857 ft | 255 kts | 1° |
| 2026-04-25 21:26 | 60.55615 | 24.86191 | 9611 ft | 255 kts | 1° |
| 2026-04-25 21:26 | 60.57409 | 24.86258 | 10039 ft | 267 kts | 1° |
| 2026-04-25 21:26 | 60.59327 | 24.86331 | 10351 ft | 283 kts | 1° |
| 2026-04-25 21:26 | 60.61361 | 24.86411 | 10618 ft | 300 kts | 1° |
| 2026-04-25 21:27 | 60.63509 | 24.86496 | 10917 ft | 315 kts | 1° |
| 2026-04-25 21:27 | 60.65738 | 24.86585 | 11416 ft | 323 kts | 1° |
| 2026-04-25 21:27 | 60.67984 | 24.86674 | 12192 ft | 321 kts | 1° |
| 2026-04-25 21:27 | 60.70235 | 24.86764 | 12828 ft | 327 kts | 1° |
| 2026-04-25 21:28 | 60.72544 | 24.86855 | 13247 ft | 337 kts | 1° |
| 2026-04-25 21:28 | 60.74880 | 24.86946 | 13846 ft | 338 kts | 1° |
| 2026-04-25 21:28 | 60.77239 | 24.87039 | 14545 ft | 338 kts | 1° |
| 2026-04-25 21:28 | 60.79614 | 24.87132 | 15036 ft | 344 kts | 1° |
| 2026-04-25 21:29 | 60.82043 | 24.87228 | 15439 ft | 352 kts | 1° |
| 2026-04-25 21:29 | 60.84538 | 24.87325 | 15746 ft | 362 kts | 1° |
| 2026-04-25 21:29 | 60.87031 | 24.87424 | 16382 ft | 362 kts | 1° |
| 2026-04-25 21:29 | 60.89557 | 24.87524 | 16953 ft | 366 kts | 1° |
| 2026-04-25 21:30 | 60.92131 | 24.87628 | 17396 ft | 372 kts | 1° |
| 2026-04-25 21:30 | 60.94741 | 24.87733 | 17922 ft | 375 kts | 2° |
| 2026-04-25 21:30 | 60.97370 | 24.87839 | 18405 ft | 379 kts | 1° |
| 2026-04-25 21:30 | 60.99123 | 24.87909 | 18739 ft | 381 kts | 2° |
| 2026-04-25 21:31 | 61.02685 | 24.88053 | 19448 ft | 385 kts | 1° |
| 2026-04-25 21:31 | 61.05347 | 24.88160 | 19903 ft | 389 kts | 2° |
| 2026-04-25 21:31 | 61.08067 | 24.88270 | 20443 ft | 392 kts | 1° |
| 2026-04-25 21:31 | 61.10812 | 24.88380 | 20898 ft | 397 kts | 1° |
| 2026-04-25 21:32 | 61.13573 | 24.88491 | 21354 ft | 401 kts | 1° |
| 2026-04-25 21:32 | 61.16401 | 24.88604 | 21653 ft | 409 kts | 1° |
| 2026-04-25 21:32 | 61.19280 | 24.88720 | 21994 ft | 416 kts | 1° |
| 2026-04-25 21:32 | 61.22185 | 24.88838 | 22531 ft | 418 kts | 1° |
| 2026-04-25 21:33 | 61.25106 | 24.88956 | 23012 ft | 421 kts | 1° |
| 2026-04-25 21:33 | 61.28015 | 24.89075 | 23366 ft | 425 kts | 0° |
| 2026-04-25 21:33 | 61.30991 | 24.89196 | 23724 ft | 429 kts | 0° |
| 2026-04-25 21:33 | 61.33974 | 24.89318 | 24191 ft | 430 kts | 0° |
| 2026-04-25 21:34 | 61.36974 | 24.89441 | 24620 ft | 432 kts | 0° |
| 2026-04-25 21:34 | 61.39996 | 24.89565 | 24960 ft | 436 kts | 0° |
| 2026-04-25 21:34 | 61.43046 | 24.89689 | 25357 ft | 438 kts | 360° |
| 2026-04-25 21:34 | 61.46067 | 24.89813 | 25782 ft | 440 kts | 0° |
| 2026-04-25 21:35 | 61.49154 | 24.89940 | 26052 ft | 447 kts | 360° |
| 2026-04-25 21:35 | 61.52284 | 24.90070 | 26355 ft | 451 kts | 360° |
| 2026-04-25 21:35 | 61.55435 | 24.90199 | 26822 ft | 452 kts | 0° |
| 2026-04-25 21:35 | 61.58586 | 24.90331 | 27267 ft | 454 kts | 359° |
| 2026-04-25 21:36 | 61.61758 | 24.90464 | 27618 ft | 457 kts | 359° |
| 2026-04-25 21:36 | 61.64959 | 24.90598 | 27968 ft | 460 kts | 359° |
| 2026-04-25 21:36 | 61.68176 | 24.90731 | 28385 ft | 462 kts | 360° |
| 2026-04-25 21:36 | 61.71363 | 24.90865 | 28771 ft | 465 kts | 359° |
| 2026-04-25 21:37 | 61.74589 | 24.91003 | 29361 ft | 462 kts | 359° |
| 2026-04-25 21:37 | 61.76727 | 24.91093 | 29616 ft | 463 kts | 359° |
| 2026-04-25 21:37 | 61.81083 | 24.91274 | 29848 ft | 471 kts | 359° |
| 2026-04-25 21:37 | 61.84370 | 24.91414 | 30095 ft | 473 kts | 358° |
| 2026-04-25 21:38 | 61.87673 | 24.91554 | 30384 ft | 474 kts | 359° |
| 2026-04-25 21:38 | 61.90940 | 24.91692 | 30630 ft | 477 kts | 359° |
| 2026-04-25 21:38 | 61.94266 | 24.91836 | 30908 ft | 478 kts | 359° |
| 2026-04-25 21:38 | 61.97598 | 24.91981 | 31197 ft | 479 kts | 360° |
| 2026-04-25 21:39 | 62.00940 | 24.92122 | 31381 ft | 482 kts | 359° |
| 2026-04-25 21:39 | 62.04317 | 24.92265 | 31615 ft | 484 kts | 359° |
| 2026-04-25 21:39 | 62.07691 | 24.92410 | 31873 ft | 485 kts | 359° |
| 2026-04-25 21:39 | 62.11029 | 24.92552 | 32093 ft | 487 kts | 359° |
| 2026-04-25 21:40 | 62.14437 | 24.92697 | 32224 ft | 490 kts | 359° |
| 2026-04-25 21:40 | 62.17844 | 24.92845 | 32585 ft | 488 kts | 359° |
| 2026-04-25 21:40 | 62.21240 | 24.92995 | 32976 ft | 486 kts | 359° |
| 2026-04-25 21:40 | 62.24635 | 24.93143 | 33185 ft | 487 kts | 359° |
| 2026-04-25 21:41 | 62.27995 | 24.93288 | 33448 ft | 487 kts | 359° |
| 2026-04-25 21:41 | 62.31368 | 24.93436 | 33779 ft | 485 kts | 359° |
| 2026-04-25 21:41 | 62.34747 | 24.93583 | 33915 ft | 486 kts | 359° |
| 2026-04-25 21:41 | 62.38145 | 24.93731 | 34051 ft | 487 kts | 359° |
| 2026-04-25 21:42 | 62.41540 | 24.93881 | 34296 ft | 486 kts | 359° |
| 2026-04-25 21:42 | 62.44889 | 24.94028 | 34484 ft | 486 kts | 359° |
| 2026-04-25 21:42 | 62.48278 | 24.94177 | 34675 ft | 485 kts | 359° |
| 2026-04-25 21:42 | 62.51656 | 24.94326 | 34918 ft | 484 kts | 359° |
| 2026-04-25 21:43 | 62.55032 | 24.94476 | 35095 ft | 484 kts | 359° |
| 2026-04-25 21:43 | 62.58368 | 24.94624 | 35209 ft | 485 kts | 360° |
| 2026-04-25 21:43 | 62.61754 | 24.94774 | 35378 ft | 485 kts | 359° |
| 2026-04-25 21:43 | 62.65129 | 24.94925 | 35535 ft | 485 kts | 360° |
| 2026-04-25 21:44 | 62.71940 | 24.95228 | 35566 ft | 492 kts | 360° |
| 2026-04-25 21:45 | 62.82216 | 24.95690 | 35572 ft | 493 kts | 360° |
| 2026-04-25 21:45 | 62.89067 | 24.96002 | 35573 ft | 492 kts | 359° |
| 2026-04-25 21:46 | 62.95879 | 24.96312 | 35587 ft | 492 kts | 359° |
| 2026-04-25 21:46 | 63.02741 | 24.96625 | 35586 ft | 492 kts | 360° |
| 2026-04-25 21:47 | 63.09551 | 24.96938 | 35594 ft | 492 kts | 360° |
| 2026-04-25 21:47 | 63.16413 | 24.97253 | 35590 ft | 493 kts | 360° |
| 2026-04-25 21:48 | 63.23285 | 24.97572 | 35603 ft | 492 kts | 360° |
| 2026-04-25 21:48 | 63.30103 | 24.97890 | 35603 ft | 492 kts | 360° |
| 2026-04-25 21:49 | 63.36956 | 24.98210 | 35606 ft | 492 kts | 360° |
| 2026-04-25 21:49 | 63.42654 | 24.98478 | 35606 ft | 492 kts | 360° |
| 2026-04-25 21:50 | 63.50638 | 24.98854 | 35617 ft | 493 kts | 360° |
| 2026-04-25 21:50 | 63.56346 | 24.99125 | 35617 ft | 493 kts | 360° |
| 2026-04-25 21:51 | 63.63214 | 24.99452 | 35614 ft | 493 kts | 360° |
| 2026-04-25 21:51 | 63.70040 | 24.99779 | 35617 ft | 493 kts | 360° |
| 2026-04-25 21:52 | 63.76915 | 25.00110 | 35629 ft | 493 kts | 360° |
| 2026-04-25 21:52 | 63.83788 | 25.00442 | 35623 ft | 494 kts | 360° |
| 2026-04-25 21:53 | 63.90608 | 24.99782 | 35620 ft | 492 kts | 353° |
| 2026-04-25 21:53 | 63.97424 | 24.97982 | 35622 ft | 491 kts | 352° |
| 2026-04-25 21:54 | 64.04180 | 24.95947 | 35625 ft | 489 kts | 351° |
| 2026-04-25 21:54 | 64.10893 | 24.93909 | 35633 ft | 489 kts | 351° |
| 2026-04-25 21:55 | 64.17647 | 24.91883 | 35637 ft | 490 kts | 351° |
| 2026-04-25 21:55 | 64.24412 | 24.89860 | 35637 ft | 490 kts | 351° |
| 2026-04-25 21:56 | 64.31184 | 24.87829 | 35632 ft | 490 kts | 351° |
| 2026-04-25 21:56 | 64.37909 | 24.85801 | 35634 ft | 490 kts | 351° |
| 2026-04-25 21:57 | 64.44681 | 24.83747 | 35641 ft | 490 kts | 351° |
| 2026-04-25 21:57 | 64.51452 | 24.81683 | 35632 ft | 490 kts | 351° |
| 2026-04-25 21:58 | 64.58184 | 24.79620 | 35636 ft | 490 kts | 351° |
| 2026-04-25 21:58 | 64.64946 | 24.77539 | 35646 ft | 489 kts | 351° |
| 2026-04-25 21:59 | 64.71696 | 24.75450 | 35635 ft | 489 kts | 351° |
| 2026-04-25 21:59 | 64.78406 | 24.73363 | 35636 ft | 489 kts | 351° |
| 2026-04-25 22:00 | 64.88534 | 24.70193 | 35640 ft | 489 kts | 351° |
| 2026-04-25 22:00 | 64.95303 | 24.68061 | 35639 ft | 489 kts | 351° |
| 2026-04-25 22:01 | 65.02024 | 24.65934 | 35643 ft | 489 kts | 351° |
| 2026-04-25 22:01 | 65.07651 | 24.64144 | 35647 ft | 489 kts | 351° |
| 2026-04-25 22:02 | 65.15512 | 24.61632 | 35647 ft | 489 kts | 351° |
| 2026-04-25 22:02 | 65.22277 | 24.59457 | 35654 ft | 490 kts | 351° |
| 2026-04-25 22:03 | 65.29050 | 24.57268 | 35652 ft | 490 kts | 351° |
| 2026-04-25 22:03 | 65.35784 | 24.55081 | 35647 ft | 490 kts | 351° |
| 2026-04-25 22:04 | 65.42554 | 24.52871 | 35648 ft | 490 kts | 351° |
| 2026-04-25 22:04 | 65.49297 | 24.50659 | 35656 ft | 490 kts | 351° |
| 2026-04-25 22:05 | 65.56064 | 24.48426 | 35659 ft | 490 kts | 351° |
| 2026-04-25 22:05 | 65.62850 | 24.46175 | 35663 ft | 491 kts | 351° |
| 2026-04-25 22:06 | 65.69597 | 24.43926 | 35666 ft | 492 kts | 351° |
| 2026-04-25 22:06 | 65.76414 | 24.41640 | 35664 ft | 496 kts | 351° |
| 2026-04-25 22:07 | 65.82106 | 24.39723 | 35739 ft | 499 kts | 351° |
| 2026-04-25 22:07 | 65.90145 | 24.37000 | 35668 ft | 503 kts | 351° |
| 2026-04-25 22:08 | 65.97092 | 24.34635 | 35693 ft | 505 kts | 351° |
| 2026-04-25 22:08 | 66.04036 | 24.32257 | 35677 ft | 504 kts | 351° |
| 2026-04-25 22:09 | 66.10938 | 24.29882 | 35676 ft | 497 kts | 351° |
| 2026-04-25 22:09 | 66.17751 | 24.27523 | 35677 ft | 496 kts | 351° |
| 2026-04-25 22:10 | 66.24603 | 24.25136 | 35679 ft | 496 kts | 351° |
| 2026-04-25 22:10 | 66.31459 | 24.22735 | 35692 ft | 496 kts | 351° |
| 2026-04-25 22:11 | 66.38259 | 24.20341 | 35681 ft | 495 kts | 351° |
| 2026-04-25 22:11 | 66.45089 | 24.17924 | 35690 ft | 495 kts | 351° |
| 2026-04-25 22:12 | 66.51918 | 24.15493 | 35691 ft | 495 kts | 351° |
| 2026-04-25 22:12 | 66.57598 | 24.13461 | 35690 ft | 495 kts | 351° |
| 2026-04-25 22:13 | 66.65529 | 24.10609 | 35692 ft | 495 kts | 351° |
| 2026-04-25 22:13 | 66.72368 | 24.08134 | 35700 ft | 495 kts | 351° |
| 2026-04-25 22:14 | 66.79155 | 24.05663 | 35702 ft | 496 kts | 351° |
| 2026-04-25 22:14 | 66.86004 | 24.03157 | 35703 ft | 496 kts | 351° |
| 2026-04-25 22:15 | 66.92801 | 24.00656 | 35695 ft | 496 kts | 351° |
| 2026-04-25 22:16 | 67.03021 | 23.96869 | 35706 ft | 494 kts | 351° |
| 2026-04-25 22:16 | 67.09825 | 23.94329 | 35708 ft | 494 kts | 351° |
| 2026-04-25 22:17 | 67.16640 | 23.91770 | 35706 ft | 495 kts | 351° |
| 2026-04-25 22:17 | 67.23475 | 23.89190 | 35714 ft | 495 kts | 351° |
| 2026-04-25 22:18 | 67.30251 | 23.86617 | 35713 ft | 495 kts | 351° |
| 2026-04-25 22:18 | 67.37073 | 23.84012 | 35710 ft | 495 kts | 351° |
| 2026-04-25 22:19 | 67.43865 | 23.81403 | 35719 ft | 495 kts | 351° |
| 2026-04-25 22:19 | 67.50690 | 23.78766 | 35719 ft | 496 kts | 351° |
| 2026-04-25 22:20 | 67.57529 | 23.76109 | 35716 ft | 495 kts | 351° |
| 2026-04-25 22:20 | 67.64351 | 23.73443 | 35719 ft | 494 kts | 351° |
| 2026-04-25 22:21 | 67.71105 | 23.70787 | 35724 ft | 494 kts | 351° |
| 2026-04-25 22:21 | 67.77923 | 23.68091 | 35725 ft | 494 kts | 351° |
| 2026-04-25 22:22 | 67.84722 | 23.65386 | 35728 ft | 494 kts | 351° |
| 2026-04-25 22:22 | 67.91502 | 23.62673 | 35730 ft | 495 kts | 351° |
| 2026-04-25 22:23 | 67.98328 | 23.59926 | 35729 ft | 495 kts | 351° |
| 2026-04-25 22:23 | 68.05150 | 23.57164 | 35729 ft | 495 kts | 351° |
| 2026-04-25 22:24 | 68.11925 | 23.54405 | 35730 ft | 495 kts | 351° |
| 2026-04-25 22:24 | 68.18744 | 23.51611 | 35733 ft | 494 kts | 351° |
| 2026-04-25 22:25 | 68.25534 | 23.48811 | 35736 ft | 493 kts | 351° |
| 2026-04-25 22:25 | 68.32288 | 23.46010 | 35733 ft | 493 kts | 351° |
| 2026-04-25 22:26 | 68.39075 | 23.43179 | 35664 ft | 493 kts | 351° |
| 2026-04-25 22:26 | 68.45823 | 23.40346 | 35665 ft | 493 kts | 351° |
| 2026-04-25 22:27 | 68.52615 | 23.37478 | 35684 ft | 493 kts | 351° |
| 2026-04-25 22:27 | 68.59417 | 23.34588 | 35710 ft | 493 kts | 351° |
| 2026-04-25 22:28 | 68.66178 | 23.31857 | 35721 ft | 494 kts | 355° |
| 2026-04-25 22:28 | 68.73049 | 23.30621 | 35738 ft | 494 kts | 356° |
| 2026-04-25 22:29 | 68.79945 | 23.29642 | 35733 ft | 494 kts | 357° |
| 2026-04-25 22:29 | 68.86773 | 23.28729 | 35735 ft | 492 kts | 357° |
| 2026-04-25 22:30 | 68.97006 | 23.27332 | 35746 ft | 491 kts | 357° |
| 2026-04-25 22:30 | 69.02729 | 23.26534 | 35740 ft | 492 kts | 357° |
| 2026-04-25 22:31 | 69.10718 | 23.25411 | 35738 ft | 492 kts | 357° |
| 2026-04-25 22:31 | 69.17565 | 23.24443 | 35738 ft | 493 kts | 357° |
| 2026-04-25 22:32 | 69.24421 | 23.23468 | 35738 ft | 493 kts | 357° |
| 2026-04-25 22:32 | 69.31241 | 23.22491 | 35743 ft | 493 kts | 357° |
| 2026-04-25 22:33 | 69.38071 | 23.21507 | 35742 ft | 493 kts | 357° |
| 2026-04-25 22:33 | 69.44942 | 23.20511 | 35741 ft | 494 kts | 357° |
| 2026-04-25 22:34 | 69.51811 | 23.19509 | 35735 ft | 494 kts | 357° |
| 2026-04-25 22:34 | 69.57525 | 23.18670 | 35718 ft | 494 kts | 357° |
| 2026-04-25 22:35 | 69.65507 | 23.17491 | 35736 ft | 492 kts | 357° |
| 2026-04-25 22:35 | 69.72338 | 23.16475 | 35739 ft | 492 kts | 357° |
| 2026-04-25 22:36 | 69.78016 | 23.15625 | 35740 ft | 492 kts | 357° |
| 2026-04-25 22:36 | 69.84846 | 23.14598 | 35744 ft | 492 kts | 357° |
| 2026-04-25 22:37 | 69.91700 | 23.13559 | 35745 ft | 492 kts | 357° |
| 2026-04-25 22:37 | 69.98554 | 23.12514 | 35748 ft | 492 kts | 357° |
| 2026-04-25 22:38 | 70.05350 | 23.11471 | 35744 ft | 492 kts | 357° |
| 2026-04-25 22:38 | 70.12208 | 23.10411 | 35740 ft | 492 kts | 357° |
| 2026-04-25 22:39 | 70.19005 | 23.09354 | 35738 ft | 491 kts | 357° |
| 2026-04-25 22:39 | 70.25845 | 23.08283 | 35731 ft | 491 kts | 357° |
| 2026-04-25 22:40 | 70.32685 | 23.07205 | 35724 ft | 491 kts | 357° |
| 2026-04-25 22:40 | 70.39477 | 23.06127 | 35726 ft | 490 kts | 357° |
| 2026-04-25 22:41 | 70.46287 | 23.05039 | 35732 ft | 490 kts | 357° |
| 2026-04-25 22:41 | 70.53124 | 23.03939 | 35735 ft | 491 kts | 357° |
| 2026-04-25 22:42 | 70.59953 | 23.02834 | 35736 ft | 491 kts | 357° |
| 2026-04-25 22:42 | 70.66779 | 23.01721 | 35729 ft | 491 kts | 357° |
| 2026-04-25 22:43 | 70.73578 | 23.00606 | 35725 ft | 491 kts | 357° |
| 2026-04-25 22:43 | 70.80424 | 22.99475 | 35731 ft | 491 kts | 357° |
| 2026-04-25 22:44 | 70.87260 | 22.98337 | 35730 ft | 492 kts | 357° |
| 2026-04-25 22:44 | 70.94118 | 22.97188 | 35730 ft | 492 kts | 357° |
| 2026-04-25 22:45 | 71.00933 | 22.96038 | 35724 ft | 493 kts | 357° |
| 2026-04-25 22:45 | 71.07806 | 22.94871 | 35721 ft | 493 kts | 357° |
| 2026-04-25 22:46 | 71.14574 | 22.92311 | 35693 ft | 492 kts | 350° |
| 2026-04-25 22:46 | 71.21301 | 22.88424 | 35698 ft | 491 kts | 349° |
| 2026-04-25 22:47 | 71.28033 | 22.84301 | 35707 ft | 493 kts | 349° |
| 2026-04-25 22:47 | 71.34766 | 22.80123 | 35705 ft | 493 kts | 349° |
| 2026-04-25 22:48 | 71.41499 | 22.75933 | 35706 ft | 493 kts | 349° |
| 2026-04-25 22:48 | 71.48240 | 22.71721 | 35715 ft | 493 kts | 349° |
| 2026-04-25 22:49 | 71.54934 | 22.67512 | 35715 ft | 493 kts | 349° |
| 2026-04-25 22:49 | 71.61676 | 22.63241 | 35707 ft | 493 kts | 349° |
| 2026-04-25 22:50 | 71.68372 | 22.58968 | 35709 ft | 493 kts | 349° |
| 2026-04-25 22:50 | 71.75123 | 22.54629 | 35706 ft | 493 kts | 349° |
| 2026-04-25 22:51 | 71.81828 | 22.50288 | 35710 ft | 493 kts | 349° |
| 2026-04-25 22:51 | 71.88570 | 22.45891 | 35714 ft | 493 kts | 349° |
| 2026-04-25 22:52 | 71.95310 | 22.41463 | 35720 ft | 493 kts | 349° |
| 2026-04-25 22:52 | 72.00900 | 22.37766 | 35721 ft | 493 kts | 349° |
| 2026-04-25 22:53 | 72.08741 | 22.32539 | 35720 ft | 493 kts | 349° |
| 2026-04-25 22:53 | 72.15433 | 22.28046 | 35731 ft | 493 kts | 349° |
| 2026-04-25 22:54 | 72.22177 | 22.23483 | 35732 ft | 493 kts | 349° |
| 2026-04-25 22:54 | 72.28878 | 22.18914 | 35730 ft | 494 kts | 349° |
| 2026-04-25 22:55 | 72.35610 | 22.14289 | 35725 ft | 492 kts | 349° |
| 2026-04-25 22:55 | 72.42296 | 22.09663 | 35737 ft | 490 kts | 348° |
| 2026-04-25 22:56 | 72.48935 | 22.05032 | 35735 ft | 489 kts | 349° |
| 2026-04-25 22:56 | 72.55594 | 22.00353 | 35726 ft | 490 kts | 348° |
| 2026-04-25 22:57 | 72.62287 | 21.95615 | 35747 ft | 491 kts | 349° |
| 2026-04-25 22:57 | 72.68958 | 21.90856 | 35746 ft | 489 kts | 348° |
| 2026-04-25 22:58 | 72.75602 | 21.86080 | 35742 ft | 490 kts | 349° |
| 2026-04-25 22:58 | 72.82261 | 21.81258 | 35747 ft | 488 kts | 349° |
| 2026-04-25 22:59 | 72.88940 | 21.76383 | 35758 ft | 491 kts | 348° |
| 2026-04-25 22:59 | 72.95586 | 21.71490 | 35756 ft | 490 kts | 348° |
| 2026-04-25 23:00 | 73.02273 | 21.66534 | 35762 ft | 492 kts | 348° |
| 2026-04-25 23:00 | 73.08919 | 21.61569 | 35768 ft | 489 kts | 348° |
| 2026-04-25 23:01 | 73.15583 | 21.56553 | 35769 ft | 491 kts | 348° |
| 2026-04-25 23:01 | 73.22227 | 21.51509 | 35775 ft | 490 kts | 348° |
| 2026-04-25 23:02 | 73.28879 | 21.46421 | 35762 ft | 490 kts | 348° |
| 2026-04-25 23:02 | 73.35581 | 21.41255 | 35790 ft | 493 kts | 348° |
| 2026-04-25 23:03 | 73.42215 | 21.36100 | 35794 ft | 491 kts | 348° |
| 2026-04-25 23:03 | 73.48937 | 21.30834 | 35778 ft | 493 kts | 348° |
| 2026-04-25 23:04 | 73.54486 | 21.26453 | 35781 ft | 492 kts | 348° |
| 2026-04-25 23:04 | 73.62291 | 21.20243 | 35804 ft | 493 kts | 348° |
| 2026-04-25 23:05 | 73.68967 | 21.14884 | 35797 ft | 489 kts | 348° |
| 2026-04-25 23:05 | 73.75624 | 21.09496 | 35801 ft | 491 kts | 347° |
| 2026-04-25 23:06 | 73.82295 | 21.04052 | 35803 ft | 491 kts | 348° |
| 2026-04-25 23:06 | 73.88918 | 20.98603 | 35815 ft | 491 kts | 347° |
| 2026-04-25 23:07 | 73.95599 | 20.93060 | 35819 ft | 492 kts | 347° |
| 2026-04-25 23:07 | 74.02228 | 20.87515 | 35817 ft | 491 kts | 347° |
| 2026-04-25 23:08 | 74.08907 | 20.81880 | 35836 ft | 493 kts | 347° |
| 2026-04-25 23:08 | 74.15591 | 20.76195 | 35837 ft | 492 kts | 347° |
| 2026-04-25 23:09 | 74.22247 | 20.70486 | 35834 ft | 493 kts | 347° |
| 2026-04-25 23:09 | 74.28915 | 20.64720 | 35837 ft | 490 kts | 347° |
| 2026-04-25 23:10 | 74.35593 | 20.58894 | 35858 ft | 493 kts | 347° |
| 2026-04-25 23:10 | 74.42240 | 20.53045 | 35861 ft | 492 kts | 347° |
| 2026-04-25 23:11 | 74.48903 | 20.47131 | 35858 ft | 492 kts | 347° |
| 2026-04-25 23:11 | 74.55576 | 20.41158 | 35861 ft | 494 kts | 347° |
| 2026-04-25 23:12 | 74.62263 | 20.35123 | 35868 ft | 494 kts | 347° |
| 2026-04-25 23:12 | 74.68938 | 20.29044 | 35871 ft | 495 kts | 347° |
| 2026-04-25 23:13 | 74.75645 | 20.22879 | 35877 ft | 494 kts | 347° |
| 2026-04-25 23:13 | 74.82303 | 20.16706 | 35876 ft | 495 kts | 346° |
| 2026-04-25 23:14 | 74.89011 | 20.10435 | 35889 ft | 493 kts | 346° |
| 2026-04-25 23:14 | 74.95691 | 20.04131 | 35894 ft | 495 kts | 346° |
| 2026-04-25 23:15 | 75.02341 | 19.97673 | 35893 ft | 494 kts | 344° |
| 2026-04-25 23:15 | 75.08889 | 19.89252 | 35909 ft | 495 kts | 340° |
| 2026-04-25 23:16 | 75.15346 | 19.80188 | 35909 ft | 496 kts | 341° |
| 2026-04-25 23:16 | 75.21859 | 19.71230 | 35907 ft | 494 kts | 341° |
| 2026-04-25 23:17 | 75.28377 | 19.62415 | 35912 ft | 496 kts | 341° |
| 2026-04-25 23:17 | 75.34868 | 19.53624 | 35928 ft | 495 kts | 341° |
| 2026-04-25 23:18 | 75.41400 | 19.44694 | 35920 ft | 497 kts | 341° |
| 2026-04-25 23:18 | 75.46827 | 19.37201 | 35929 ft | 497 kts | 341° |
| 2026-04-25 23:19 | 75.53364 | 19.28096 | 35937 ft | 495 kts | 341° |
| 2026-04-25 23:19 | 75.59834 | 19.18996 | 35947 ft | 495 kts | 341° |
| 2026-04-25 23:20 | 75.66364 | 19.09725 | 35946 ft | 496 kts | 341° |
| 2026-04-25 23:20 | 75.72839 | 19.00445 | 35945 ft | 494 kts | 340° |
| 2026-04-25 23:21 | 75.79345 | 18.91033 | 35964 ft | 497 kts | 340° |
| 2026-04-25 23:21 | 75.85833 | 18.81558 | 35963 ft | 497 kts | 340° |
| 2026-04-25 23:22 | 75.92348 | 18.71950 | 35963 ft | 497 kts | 340° |
| 2026-04-25 23:23 | 76.02102 | 18.57394 | 35977 ft | 496 kts | 340° |
| 2026-04-25 23:23 | 76.08593 | 18.47588 | 35978 ft | 495 kts | 340° |
| 2026-04-25 23:24 | 76.15046 | 18.37743 | 35984 ft | 497 kts | 340° |
| 2026-04-25 23:24 | 76.21541 | 18.27736 | 35994 ft | 496 kts | 340° |
| 2026-04-25 23:25 | 76.28033 | 18.17635 | 35999 ft | 497 kts | 340° |
| 2026-04-25 23:25 | 76.34490 | 18.07490 | 36000 ft | 498 kts | 340° |
| 2026-04-25 23:26 | 76.40993 | 17.97171 | 36008 ft | 497 kts | 339° |
| 2026-04-25 23:26 | 76.47453 | 17.86816 | 36015 ft | 498 kts | 339° |
| 2026-04-25 23:27 | 76.53945 | 17.76306 | 36015 ft | 497 kts | 339° |
| 2026-04-25 23:27 | 76.60416 | 17.65721 | 36016 ft | 496 kts | 339° |
| 2026-04-25 23:28 | 76.66848 | 17.55091 | 36028 ft | 498 kts | 339° |
| 2026-04-25 23:28 | 76.73325 | 17.44278 | 36026 ft | 497 kts | 339° |
| 2026-04-25 23:29 | 76.79795 | 17.33367 | 36033 ft | 498 kts | 339° |
| 2026-04-25 23:29 | 76.86236 | 17.22390 | 36039 ft | 498 kts | 339° |
| 2026-04-25 23:30 | 76.92701 | 17.11259 | 36038 ft | 497 kts | 339° |
| 2026-04-25 23:30 | 76.99127 | 17.00079 | 36045 ft | 498 kts | 338° |
| 2026-04-25 23:31 | 77.05554 | 16.88778 | 36047 ft | 498 kts | 338° |
| 2026-04-25 23:31 | 77.12019 | 16.77292 | 36043 ft | 499 kts | 338° |
| 2026-04-25 23:32 | 77.18490 | 16.65671 | 36047 ft | 500 kts | 338° |
| 2026-04-25 23:32 | 77.24910 | 16.54016 | 36045 ft | 499 kts | 338° |
| 2026-04-25 23:33 | 77.31368 | 16.42168 | 36052 ft | 499 kts | 338° |
| 2026-04-25 23:33 | 77.37779 | 16.30277 | 36052 ft | 500 kts | 338° |
| 2026-04-25 23:34 | 77.44231 | 16.18180 | 36048 ft | 499 kts | 338° |
| 2026-04-25 23:34 | 77.50658 | 16.05998 | 36048 ft | 500 kts | 338° |
| 2026-04-25 23:35 | 77.57066 | 15.93716 | 36048 ft | 500 kts | 338° |
| 2026-04-25 23:35 | 77.63503 | 15.81244 | 36047 ft | 500 kts | 337° |
| 2026-04-25 23:36 | 77.69902 | 15.68704 | 36054 ft | 501 kts | 337° |
| 2026-04-25 23:36 | 77.76327 | 15.55973 | 36048 ft | 500 kts | 337° |
| 2026-04-25 23:37 | 77.82763 | 15.43078 | 36051 ft | 500 kts | 337° |
| 2026-04-25 23:37 | 77.89135 | 15.30165 | 36050 ft | 501 kts | 337° |
| 2026-04-25 23:38 | 77.95556 | 15.17003 | 36051 ft | 500 kts | 336° |
| 2026-04-25 23:38 | 78.01961 | 15.03722 | 36046 ft | 501 kts | 336° |
| 2026-04-25 23:39 | 78.08329 | 14.90367 | 36047 ft | 501 kts | 336° |
| 2026-04-25 23:39 | 78.14720 | 14.76807 | 36047 ft | 500 kts | 336° |
| 2026-04-25 23:40 | 78.21072 | 14.63171 | 36056 ft | 501 kts | 336° |
| 2026-04-25 23:40 | 78.27453 | 14.49313 | 36057 ft | 500 kts | 336° |
| 2026-04-25 23:41 | 78.33780 | 14.35410 | 36058 ft | 500 kts | 336° |
| 2026-04-25 23:41 | 78.40156 | 14.21231 | 36078 ft | 502 kts | 336° |
| 2026-04-25 23:42 | 78.46503 | 14.06951 | 36075 ft | 502 kts | 335° |
| 2026-04-25 23:42 | 78.52878 | 13.92433 | 36080 ft | 502 kts | 335° |
| 2026-04-25 23:43 | 78.59210 | 13.77840 | 36080 ft | 502 kts | 335° |
| 2026-04-25 23:43 | 78.65572 | 13.62995 | 36095 ft | 502 kts | 335° |
| 2026-04-25 23:44 | 78.71890 | 13.48075 | 36101 ft | 502 kts | 335° |
| 2026-04-25 23:44 | 78.78245 | 13.32880 | 36103 ft | 502 kts | 335° |
| 2026-04-25 23:45 | 78.84585 | 13.17533 | 36126 ft | 503 kts | 334° |
| 2026-04-25 23:45 | 78.90882 | 13.02098 | 36126 ft | 503 kts | 334° |
| 2026-04-25 23:46 | 78.97213 | 12.86386 | 36124 ft | 503 kts | 334° |
| 2026-04-25 23:46 | 79.03500 | 12.70586 | 36132 ft | 503 kts | 334° |
| 2026-04-25 23:47 | 79.09815 | 12.54511 | 36133 ft | 503 kts | 334° |
| 2026-04-25 23:47 | 79.16120 | 12.38255 | 36132 ft | 503 kts | 334° |
| 2026-04-25 23:48 | 79.22382 | 12.21904 | 36152 ft | 504 kts | 334° |
| 2026-04-25 23:48 | 79.28683 | 12.05237 | 36143 ft | 504 kts | 333° |
| 2026-04-25 23:49 | 79.34929 | 11.88498 | 36145 ft | 504 kts | 333° |
| 2026-04-25 23:49 | 79.41213 | 11.71436 | 36165 ft | 504 kts | 333° |
| 2026-04-25 23:50 | 79.47454 | 11.54266 | 36170 ft | 504 kts | 333° |
| 2026-04-25 23:50 | 79.53710 | 11.36827 | 36192 ft | 504 kts | 333° |
| 2026-04-25 23:51 | 79.59957 | 11.19176 | 36191 ft | 504 kts | 333° |
| 2026-04-25 23:51 | 79.66169 | 11.01389 | 36192 ft | 505 kts | 332° |
| 2026-04-25 23:52 | 79.72441 | 10.83186 | 36222 ft | 505 kts | 332° |
| 2026-04-25 23:52 | 79.78641 | 10.64944 | 36218 ft | 505 kts | 332° |
| 2026-04-25 23:53 | 79.84839 | 10.46457 | 36222 ft | 505 kts | 332° |
| 2026-04-25 23:53 | 79.91056 | 10.27654 | 36247 ft | 505 kts | 332° |
| 2026-04-25 23:54 | 79.97226 | 10.08735 | 36246 ft | 504 kts | 332° |
| 2026-04-25 23:54 | 80.03372 | 9.88969 | 36258 ft | 504 kts | 327° |
| 2026-04-25 23:55 | 80.09197 | 9.66445 | 36269 ft | 505 kts | 325° |
| 2026-04-25 23:55 | 80.14963 | 9.43204 | 36268 ft | 505 kts | 325° |
| 2026-04-25 23:56 | 80.20785 | 9.19931 | 36276 ft | 505 kts | 326° |
| 2026-04-25 23:56 | 80.26585 | 8.96761 | 36277 ft | 505 kts | 326° |
| 2026-04-25 23:57 | 80.32412 | 8.73224 | 36287 ft | 505 kts | 325° |
| 2026-04-25 23:57 | 80.38174 | 8.49595 | 36289 ft | 505 kts | 325° |
| 2026-04-25 23:58 | 80.43955 | 8.25517 | 36292 ft | 505 kts | 324° |
| 2026-04-25 23:58 | 80.49691 | 8.01259 | 36303 ft | 506 kts | 324° |
| 2026-04-25 23:59 | 80.55456 | 7.76512 | 36305 ft | 506 kts | 324° |
| 2026-04-25 23:59 | 80.61202 | 7.51473 | 36306 ft | 506 kts | 324° |
| 2026-04-26 00:00 | 80.66895 | 7.26286 | 36319 ft | 506 kts | 323° |
| 2026-04-26 00:00 | 80.72606 | 7.00632 | 36326 ft | 506 kts | 323° |
| 2026-04-26 00:01 | 80.78260 | 6.74835 | 36323 ft | 506 kts | 323° |
| 2026-04-26 00:01 | 80.83922 | 6.48598 | 36337 ft | 506 kts | 323° |
| 2026-04-26 00:02 | 80.89562 | 6.22059 | 36348 ft | 507 kts | 322° |
| 2026-04-26 00:02 | 80.95161 | 5.95296 | 36333 ft | 507 kts | 322° |
| 2026-04-26 00:03 | 81.00789 | 5.67962 | 36354 ft | 507 kts | 322° |
| 2026-04-26 00:03 | 81.05436 | 5.45058 | 36359 ft | 507 kts | 322° |
| 2026-04-26 00:04 | 81.11932 | 5.12528 | 36361 ft | 507 kts | 321° |
| 2026-04-26 00:04 | 81.16568 | 4.88932 | 36378 ft | 507 kts | 321° |
| 2026-04-26 00:05 | 81.22078 | 4.60458 | 36380 ft | 507 kts | 321° |
| 2026-04-26 00:05 | 81.27603 | 4.31442 | 36365 ft | 507 kts | 320° |
| 2026-04-26 00:06 | 81.33067 | 4.02266 | 36370 ft | 507 kts | 320° |
| 2026-04-26 00:06 | 81.38550 | 3.72498 | 36380 ft | 508 kts | 320° |
| 2026-04-26 00:07 | 81.43997 | 3.42425 | 36394 ft | 508 kts | 320° |
| 2026-04-26 00:07 | 81.49435 | 3.11887 | 36381 ft | 508 kts | 319° |
| 2026-04-26 00:08 | 81.54816 | 2.81148 | 36391 ft | 507 kts | 319° |
| 2026-04-26 00:08 | 81.60196 | 2.49885 | 36400 ft | 508 kts | 319° |
| 2026-04-26 00:09 | 81.65534 | 2.18325 | 36399 ft | 509 kts | 318° |
| 2026-04-26 00:09 | 81.70891 | 1.86084 | 36410 ft | 509 kts | 318° |
| 2026-04-26 00:10 | 81.76218 | 1.53462 | 36416 ft | 509 kts | 318° |
| 2026-04-26 00:10 | 81.81485 | 1.20626 | 36415 ft | 508 kts | 317° |
| 2026-04-26 00:11 | 81.86745 | 0.87237 | 36420 ft | 509 kts | 317° |
| 2026-04-26 00:11 | 81.91967 | 0.53492 | 36423 ft | 509 kts | 316° |
| 2026-04-26 00:12 | 81.97154 | 0.19352 | 36416 ft | 509 kts | 316° |
| 2026-04-26 00:12 | 82.02382 | -0.15073 | 36427 ft | 509 kts | 319° |
| 2026-04-26 00:13 | 82.07932 | -0.47111 | 36428 ft | 510 kts | 321° |
| 2026-04-26 00:13 | 82.13541 | -0.78891 | 36430 ft | 511 kts | 321° |
| 2026-04-26 00:14 | 82.19049 | -1.11334 | 36427 ft | 511 kts | 320° |
| 2026-04-26 00:14 | 82.24536 | -1.44759 | 36429 ft | 510 kts | 320° |
| 2026-04-26 00:15 | 82.29949 | -1.78492 | 36429 ft | 510 kts | 319° |
| 2026-04-26 00:15 | 82.35388 | -2.13028 | 36435 ft | 511 kts | 319° |
| 2026-04-26 00:16 | 82.40790 | -2.47962 | 36437 ft | 510 kts | 319° |
| 2026-04-26 00:16 | 82.46114 | -2.83046 | 36436 ft | 510 kts | 317° |
| 2026-04-26 00:17 | 82.51478 | -3.19089 | 36438 ft | 511 kts | 317° |
| 2026-04-26 00:17 | 82.56764 | -3.55322 | 36445 ft | 511 kts | 317° |
| 2026-04-26 00:18 | 82.62048 | -3.92270 | 36442 ft | 511 kts | 317° |
| 2026-04-26 00:18 | 82.67268 | -4.29490 | 36444 ft | 510 kts | 316° |
| 2026-04-26 00:19 | 82.72496 | -4.67542 | 36443 ft | 511 kts | 316° |
| 2026-04-26 00:19 | 82.77693 | -5.06154 | 36452 ft | 511 kts | 316° |
| 2026-04-26 00:20 | 82.82820 | -5.45030 | 36450 ft | 511 kts | 315° |
| 2026-04-26 00:20 | 82.87944 | -5.84684 | 36447 ft | 510 kts | 315° |
| 2026-04-26 00:21 | 82.92999 | -6.24645 | 36461 ft | 511 kts | 314° |
| 2026-04-26 00:21 | 82.98072 | -6.65599 | 36454 ft | 513 kts | 314° |
| 2026-04-26 00:22 | 83.03082 | -7.06911 | 36454 ft | 512 kts | 313° |
| 2026-04-26 00:22 | 83.08071 | -7.48956 | 36455 ft | 510 kts | 313° |
| 2026-04-26 00:23 | 83.13025 | -7.91641 | 36456 ft | 511 kts | 313° |
| 2026-04-26 00:23 | 83.17914 | -8.34697 | 36456 ft | 512 kts | 312° |
| 2026-04-26 00:24 | 83.22802 | -8.78697 | 36459 ft | 512 kts | 312° |
| 2026-04-26 00:24 | 83.27614 | -9.23008 | 36457 ft | 512 kts | 311° |
| 2026-04-26 00:25 | 83.32418 | -9.68258 | 36465 ft | 510 kts | 311° |
| 2026-04-26 00:25 | 83.37146 | -10.13823 | 36454 ft | 512 kts | 310° |
| 2026-04-26 00:26 | 83.41844 | -10.60164 | 36454 ft | 514 kts | 310° |
| 2026-04-26 00:26 | 83.46508 | -11.07264 | 36467 ft | 513 kts | 310° |
| 2026-04-26 00:27 | 83.51143 | -11.55192 | 36461 ft | 513 kts | 309° |
| 2026-04-26 00:27 | 83.55730 | -12.03765 | 36461 ft | 511 kts | 308° |
| 2026-04-26 00:28 | 83.60229 | -12.52580 | 36466 ft | 512 kts | 308° |
| 2026-04-26 00:28 | 83.64720 | -13.02507 | 36462 ft | 512 kts | 308° |
| 2026-04-26 00:29 | 83.69141 | -13.52912 | 36461 ft | 513 kts | 307° |
| 2026-04-26 00:29 | 83.73549 | -14.04447 | 36455 ft | 513 kts | 307° |
| 2026-04-26 00:30 | 83.77861 | -14.56163 | 36461 ft | 512 kts | 306° |
| 2026-04-26 00:30 | 83.82161 | -15.09080 | 36463 ft | 512 kts | 306° |
| 2026-04-26 00:31 | 83.86367 | -15.62187 | 36453 ft | 511 kts | 306° |
| 2026-04-26 00:31 | 83.90523 | -16.16044 | 36462 ft | 512 kts | 304° |
| 2026-04-26 00:32 | 83.94663 | -16.71177 | 36459 ft | 512 kts | 304° |
| 2026-04-26 00:32 | 84.00730 | -17.54746 | 36455 ft | 513 kts | 303° |
| 2026-04-26 00:33 | 84.04696 | -18.11304 | 36459 ft | 511 kts | 303° |
| 2026-04-26 00:33 | 84.08626 | -18.68957 | 36456 ft | 512 kts | 302° |
| 2026-04-26 00:34 | 84.12463 | -19.26903 | 36456 ft | 511 kts | 302° |
| 2026-04-26 00:34 | 84.16269 | -19.85983 | 36461 ft | 512 kts | 301° |
| 2026-04-26 00:35 | 84.19997 | -20.45613 | 36449 ft | 511 kts | 301° |
| 2026-04-26 00:35 | 84.23680 | -21.06285 | 36447 ft | 511 kts | 300° |
| 2026-04-26 00:36 | 84.27266 | -21.67208 | 36442 ft | 511 kts | 300° |
| 2026-04-26 00:36 | 84.30806 | -22.29217 | 36442 ft | 510 kts | 299° |
| 2026-04-26 00:37 | 84.34273 | -22.91885 | 36448 ft | 509 kts | 298° |
| 2026-04-26 00:37 | 84.37652 | -23.54938 | 36441 ft | 509 kts | 298° |
| 2026-04-26 00:38 | 84.40964 | -24.18779 | 36450 ft | 509 kts | 297° |
| 2026-04-26 00:38 | 84.44224 | -24.83723 | 36445 ft | 509 kts | 296° |
| 2026-04-26 00:39 | 84.47388 | -25.48913 | 36431 ft | 509 kts | 296° |
| 2026-04-26 00:39 | 84.50502 | -26.15323 | 36434 ft | 509 kts | 295° |
| 2026-04-26 00:40 | 84.53541 | -26.82464 | 36445 ft | 509 kts | 295° |
| 2026-04-26 00:40 | 84.56483 | -27.49831 | 36434 ft | 509 kts | 294° |
| 2026-04-26 00:41 | 84.59368 | -28.18395 | 36430 ft | 510 kts | 293° |
| 2026-04-26 00:41 | 84.62163 | -28.87328 | 36431 ft | 509 kts | 292° |
| 2026-04-26 00:42 | 84.64902 | -29.57610 | 36428 ft | 510 kts | 291° |
| 2026-04-26 00:42 | 84.67535 | -30.27886 | 36431 ft | 509 kts | 291° |
| 2026-04-26 00:43 | 84.70102 | -30.99245 | 36415 ft | 509 kts | 290° |
| 2026-04-26 00:43 | 84.72572 | -31.70854 | 36422 ft | 508 kts | 290° |
| 2026-04-26 00:44 | 84.74976 | -32.43666 | 36425 ft | 508 kts | 289° |
| 2026-04-26 00:44 | 84.77286 | -33.16823 | 36411 ft | 508 kts | 288° |
| 2026-04-26 00:45 | 84.79138 | -33.78032 | 36422 ft | 508 kts | 288° |
| 2026-04-26 00:45 | 84.81635 | -34.64575 | 36408 ft | 508 kts | 287° |
| 2026-04-26 00:46 | 84.83678 | -35.39297 | 36407 ft | 508 kts | 286° |
| 2026-04-26 00:46 | 84.85635 | -36.14689 | 36402 ft | 508 kts | 285° |
| 2026-04-26 00:47 | 84.87509 | -36.90920 | 36408 ft | 508 kts | 285° |
| 2026-04-26 00:47 | 84.89281 | -37.67192 | 36392 ft | 507 kts | 284° |
| 2026-04-26 00:48 | 84.90970 | -38.44320 | 36407 ft | 507 kts | 283° |
| 2026-04-26 00:48 | 84.92562 | -39.21726 | 36415 ft | 507 kts | 282° |
| 2026-04-26 00:49 | 84.94069 | -40.00048 | 36415 ft | 508 kts | 282° |
| 2026-04-26 00:49 | 84.95471 | -40.78170 | 36424 ft | 507 kts | 281° |
| 2026-04-26 00:50 | 84.96570 | -41.43801 | 36386 ft | 507 kts | 280° |
| 2026-04-26 00:50 | 84.97807 | -42.23193 | 36398 ft | 507 kts | 279° |
| 2026-04-26 00:51 | 84.98940 | -43.02463 | 36399 ft | 507 kts | 279° |
| 2026-04-26 00:51 | 84.99977 | -43.82024 | 36390 ft | 506 kts | 278° |
| 2026-04-26 00:52 | 85.00923 | -44.62481 | 36407 ft | 506 kts | 277° |
| 2026-04-26 00:52 | 85.01766 | -45.42551 | 36401 ft | 506 kts | 276° |
| 2026-04-26 00:53 | 85.02511 | -46.22965 | 36397 ft | 506 kts | 276° |
| 2026-04-26 00:53 | 85.03162 | -47.03989 | 36388 ft | 505 kts | 275° |
| 2026-04-26 00:54 | 85.03709 | -47.84585 | 36387 ft | 505 kts | 274° |
| 2026-04-26 00:54 | 85.04161 | -48.65877 | 36390 ft | 505 kts | 273° |
| 2026-04-26 00:55 | 85.04512 | -49.46598 | 36386 ft | 505 kts | 272° |
| 2026-04-26 00:55 | 85.04766 | -50.28136 | 36372 ft | 505 kts | 272° |
| 2026-04-26 00:56 | 85.04918 | -51.09019 | 36385 ft | 504 kts | 271° |
| 2026-04-26 00:56 | 85.04973 | -51.90324 | 36385 ft | 504 kts | 270° |
| 2026-04-26 00:57 | 85.04929 | -52.71113 | 36380 ft | 503 kts | 270° |
| 2026-04-26 00:57 | 85.04785 | -53.52270 | 36364 ft | 503 kts | 269° |
| 2026-04-26 00:58 | 85.04545 | -54.33030 | 36356 ft | 503 kts | 268° |
| 2026-04-26 00:58 | 85.04209 | -55.13560 | 36353 ft | 503 kts | 267° |
| 2026-04-26 00:59 | 85.03773 | -55.94361 | 36366 ft | 503 kts | 266° |
| 2026-04-26 00:59 | 85.03239 | -56.74653 | 36368 ft | 503 kts | 266° |
| 2026-04-26 01:00 | 85.02607 | -57.55187 | 36367 ft | 503 kts | 265° |
| 2026-04-26 01:00 | 85.01877 | -58.35467 | 36355 ft | 503 kts | 264° |
| 2026-04-26 01:01 | 85.01053 | -59.15102 | 36370 ft | 503 kts | 264° |
| 2026-04-26 01:01 | 85.00040 | -59.94697 | 36364 ft | 504 kts | 258° |
| 2026-04-26 01:02 | 84.98117 | -60.71421 | 36369 ft | 504 kts | 253° |
| 2026-04-26 01:02 | 84.95895 | -61.47375 | 36360 ft | 505 kts | 251° |
| 2026-04-26 01:03 | 84.93559 | -62.22568 | 36360 ft | 505 kts | 251° |
| 2026-04-26 01:03 | 84.91162 | -62.96837 | 36355 ft | 505 kts | 250° |
| 2026-04-26 01:04 | 84.88688 | -63.70511 | 36368 ft | 505 kts | 250° |
| 2026-04-26 01:04 | 84.86119 | -64.43837 | 36370 ft | 505 kts | 250° |
| 2026-04-26 01:05 | 84.83466 | -65.16390 | 36367 ft | 505 kts | 249° |
| 2026-04-26 01:05 | 84.80748 | -65.87787 | 36374 ft | 505 kts | 248° |
| 2026-04-26 01:06 | 84.77937 | -66.58852 | 36367 ft | 505 kts | 248° |
| 2026-04-26 01:06 | 84.75063 | -67.28721 | 36371 ft | 505 kts | 246° |
| 2026-04-26 01:07 | 84.72092 | -67.98244 | 36372 ft | 506 kts | 246° |
| 2026-04-26 01:07 | 84.69063 | -68.66636 | 36376 ft | 506 kts | 246° |
| 2026-04-26 01:08 | 84.65928 | -69.34868 | 36370 ft | 505 kts | 245° |
| 2026-04-26 01:08 | 84.62756 | -70.01553 | 36387 ft | 505 kts | 244° |
| 2026-04-26 01:09 | 84.59501 | -70.67618 | 36383 ft | 505 kts | 244° |
| 2026-04-26 01:09 | 84.56160 | -71.33185 | 36383 ft | 506 kts | 244° |
| 2026-04-26 01:10 | 84.52770 | -71.97664 | 36399 ft | 506 kts | 243° |
| 2026-04-26 01:10 | 84.49287 | -72.61758 | 36393 ft | 506 kts | 242° |
| 2026-04-26 01:11 | 84.45759 | -73.24640 | 36392 ft | 506 kts | 241° |
| 2026-04-26 01:11 | 84.42138 | -73.87109 | 36401 ft | 506 kts | 242° |
| 2026-04-26 01:12 | 84.38454 | -74.48820 | 36390 ft | 506 kts | 241° |
| 2026-04-26 01:12 | 84.34736 | -75.09199 | 36393 ft | 505 kts | 240° |
| 2026-04-26 01:13 | 84.30927 | -75.69281 | 36408 ft | 505 kts | 240° |
| 2026-04-26 01:13 | 84.27084 | -76.28177 | 36400 ft | 506 kts | 239° |
| 2026-04-26 01:14 | 84.23182 | -76.86297 | 36401 ft | 506 kts | 238° |
| 2026-04-26 01:14 | 84.19187 | -77.43997 | 36419 ft | 506 kts | 239° |
| 2026-04-26 01:15 | 84.15138 | -78.00871 | 36399 ft | 506 kts | 237° |
| 2026-04-26 01:15 | 84.11063 | -78.56615 | 36405 ft | 506 kts | 237° |
| 2026-04-26 01:16 | 84.06902 | -79.11995 | 36423 ft | 506 kts | 236° |
| 2026-04-26 01:16 | 84.02720 | -79.66216 | 36423 ft | 505 kts | 236° |
| 2026-04-26 01:17 | 83.98492 | -80.19689 | 36417 ft | 505 kts | 237° |
| 2026-04-26 01:17 | 83.94256 | -80.73239 | 36436 ft | 505 kts | 235° |
| 2026-04-26 01:18 | 83.89989 | -81.26257 | 36447 ft | 506 kts | 236° |
| 2026-04-26 01:18 | 83.85698 | -81.78077 | 36428 ft | 506 kts | 235° |
| 2026-04-26 01:19 | 83.81319 | -82.29434 | 36449 ft | 506 kts | 234° |
| 2026-04-26 01:19 | 83.76925 | -82.79706 | 36441 ft | 506 kts | 234° |
| 2026-04-26 01:20 | 83.72443 | -83.29734 | 36439 ft | 505 kts | 233° |
| 2026-04-26 01:20 | 83.67924 | -83.78927 | 36456 ft | 505 kts | 233° |
| 2026-04-26 01:21 | 83.63394 | -84.27036 | 36457 ft | 505 kts | 232° |
| 2026-04-26 01:21 | 83.58786 | -84.74867 | 36450 ft | 505 kts | 232° |
| 2026-04-26 01:22 | 83.54164 | -85.21673 | 36471 ft | 505 kts | 231° |
| 2026-04-26 01:22 | 83.49461 | -85.68250 | 36467 ft | 505 kts | 231° |
| 2026-04-26 01:23 | 83.44742 | -86.13795 | 36460 ft | 506 kts | 231° |
| 2026-04-26 01:23 | 83.39983 | -86.58701 | 36479 ft | 506 kts | 229° |
| 2026-04-26 01:24 | 83.35160 | -87.03186 | 36478 ft | 506 kts | 231° |
| 2026-04-26 01:24 | 83.30292 | -87.47170 | 36466 ft | 506 kts | 230° |
| 2026-04-26 01:25 | 83.25394 | -87.90461 | 36490 ft | 506 kts | 229° |
| 2026-04-26 01:25 | 83.20480 | -88.32968 | 36490 ft | 506 kts | 229° |
| 2026-04-26 01:26 | 83.15506 | -88.75037 | 36495 ft | 507 kts | 228° |
| 2026-04-26 01:26 | 83.10488 | -89.16415 | 36511 ft | 507 kts | 229° |
| 2026-04-26 01:27 | 83.05429 | -89.57309 | 36511 ft | 508 kts | 228° |
| 2026-04-26 01:27 | 83.00356 | -89.97497 | 36514 ft | 508 kts | 227° |
| 2026-04-26 01:28 | 82.95071 | -90.35833 | 36515 ft | 508 kts | 223° |
| 2026-04-26 01:28 | 82.89531 | -90.71654 | 36517 ft | 508 kts | 221° |
| 2026-04-26 01:29 | 82.83967 | -91.07000 | 36535 ft | 509 kts | 221° |
| 2026-04-26 01:29 | 82.78451 | -91.41919 | 36529 ft | 508 kts | 221° |
| 2026-04-26 01:30 | 82.72895 | -91.76706 | 36527 ft | 508 kts | 221° |
| 2026-04-26 01:30 | 82.67344 | -92.10814 | 36548 ft | 509 kts | 221° |
| 2026-04-26 01:31 | 82.61725 | -92.44645 | 36535 ft | 509 kts | 220° |
| 2026-04-26 01:31 | 82.56069 | -92.77974 | 36535 ft | 509 kts | 220° |
| 2026-04-26 01:32 | 82.50437 | -93.10530 | 36552 ft | 509 kts | 220° |
| 2026-04-26 01:32 | 82.44751 | -93.42806 | 36554 ft | 508 kts | 220° |
| 2026-04-26 01:33 | 82.39095 | -93.74299 | 36551 ft | 508 kts | 219° |
| 2026-04-26 01:33 | 82.33368 | -94.05564 | 36566 ft | 508 kts | 219° |
| 2026-04-26 01:34 | 82.27613 | -94.36404 | 36566 ft | 508 kts | 219° |
| 2026-04-26 01:34 | 82.21871 | -94.66629 | 36556 ft | 509 kts | 218° |
| 2026-04-26 01:35 | 82.16067 | -94.96639 | 36556 ft | 509 kts | 218° |
| 2026-04-26 01:35 | 82.10281 | -95.26030 | 36556 ft | 509 kts | 218° |
| 2026-04-26 01:36 | 82.05391 | -95.50436 | 36544 ft | 509 kts | 218° |
| 2026-04-26 01:37 | 81.96642 | -95.93144 | 36562 ft | 507 kts | 217° |
| 2026-04-26 01:37 | 81.90816 | -96.20990 | 36580 ft | 507 kts | 217° |
| 2026-04-26 01:38 | 81.84931 | -96.48646 | 36574 ft | 507 kts | 217° |
| 2026-04-26 01:38 | 81.79030 | -96.75887 | 36574 ft | 507 kts | 216° |
| 2026-04-26 01:39 | 81.73129 | -97.02642 | 36593 ft | 507 kts | 216° |
| 2026-04-26 01:39 | 81.67176 | -97.29168 | 36592 ft | 507 kts | 216° |
| 2026-04-26 01:40 | 81.61240 | -97.55178 | 36583 ft | 507 kts | 215° |
| 2026-04-26 01:40 | 81.55245 | -97.81013 | 36581 ft | 508 kts | 215° |
| 2026-04-26 01:41 | 81.49291 | -98.06233 | 36596 ft | 506 kts | 215° |
| 2026-04-26 01:41 | 81.43331 | -98.31068 | 36587 ft | 506 kts | 214° |
| 2026-04-26 01:42 | 81.37328 | -98.55673 | 36605 ft | 506 kts | 214° |
| 2026-04-26 01:42 | 81.31304 | -98.79967 | 36624 ft | 506 kts | 214° |
| 2026-04-26 01:43 | 81.25303 | -99.03775 | 36601 ft | 506 kts | 214° |
| 2026-04-26 01:43 | 81.19242 | -99.27436 | 36613 ft | 506 kts | 213° |
| 2026-04-26 01:44 | 81.13171 | -99.50753 | 36618 ft | 506 kts | 213° |
| 2026-04-26 01:44 | 81.07120 | -99.73636 | 36635 ft | 506 kts | 213° |
| 2026-04-26 01:45 | 81.01031 | -99.96303 | 36622 ft | 505 kts | 213° |
| 2026-04-26 01:45 | 80.94854 | -100.17733 | 36622 ft | 506 kts | 209° |
| 2026-04-26 01:46 | 80.88515 | -100.37179 | 36639 ft | 506 kts | 208° |
| 2026-04-26 01:46 | 80.82148 | -100.56374 | 36633 ft | 506 kts | 208° |
| 2026-04-26 01:47 | 80.75846 | -100.75438 | 36634 ft | 506 kts | 208° |
| 2026-04-26 01:47 | 80.69499 | -100.94526 | 36642 ft | 506 kts | 208° |
| 2026-04-26 01:48 | 80.63174 | -101.13293 | 36643 ft | 506 kts | 208° |
| 2026-04-26 01:48 | 80.56807 | -101.31888 | 36651 ft | 506 kts | 208° |
| 2026-04-26 01:49 | 80.50477 | -101.50095 | 36628 ft | 506 kts | 208° |
| 2026-04-26 01:49 | 80.44092 | -101.68183 | 36649 ft | 505 kts | 208° |
| 2026-04-26 01:50 | 80.37758 | -101.85872 | 36655 ft | 504 kts | 208° |
| 2026-04-26 01:50 | 80.31375 | -102.03442 | 36645 ft | 504 kts | 208° |
| 2026-04-26 01:51 | 80.24976 | -102.20805 | 36667 ft | 504 kts | 207° |
| 2026-04-26 01:51 | 80.18608 | -102.37835 | 36681 ft | 505 kts | 207° |
| 2026-04-26 01:52 | 80.12196 | -102.54741 | 36677 ft | 505 kts | 207° |
| 2026-04-26 01:52 | 80.05801 | -102.71366 | 36681 ft | 505 kts | 207° |
| 2026-04-26 01:53 | 79.99370 | -102.87852 | 36682 ft | 505 kts | 207° |
| 2026-04-26 01:53 | 79.92978 | -103.04010 | 36661 ft | 505 kts | 207° |
| 2026-04-26 01:54 | 79.86533 | -103.20077 | 36677 ft | 503 kts | 206° |
| 2026-04-26 01:54 | 79.80127 | -103.35832 | 36682 ft | 503 kts | 206° |
| 2026-04-26 01:55 | 79.73719 | -103.51378 | 36695 ft | 503 kts | 206° |
| 2026-04-26 01:55 | 79.67263 | -103.66832 | 36693 ft | 503 kts | 206° |
| 2026-04-26 01:56 | 79.60808 | -103.82075 | 36693 ft | 503 kts | 206° |
| 2026-04-26 01:56 | 79.54344 | -103.97135 | 36698 ft | 503 kts | 206° |
| 2026-04-26 01:57 | 79.47907 | -104.11934 | 36681 ft | 503 kts | 206° |
| 2026-04-26 01:57 | 79.41414 | -104.26666 | 36697 ft | 504 kts | 205° |
| 2026-04-26 01:58 | 79.34960 | -104.41119 | 36698 ft | 504 kts | 205° |
| 2026-04-26 01:58 | 79.28470 | -104.55464 | 36708 ft | 502 kts | 205° |
| 2026-04-26 01:59 | 79.21986 | -104.69612 | 36709 ft | 502 kts | 205° |
| 2026-04-26 01:59 | 79.15538 | -104.83504 | 36709 ft | 502 kts | 205° |
| 2026-04-26 02:00 | 79.09046 | -104.97312 | 36710 ft | 502 kts | 205° |
| 2026-04-26 02:00 | 79.02540 | -105.10975 | 36720 ft | 502 kts | 205° |
| 2026-04-26 02:01 | 78.96071 | -105.24390 | 36722 ft | 502 kts | 205° |
| 2026-04-26 02:01 | 78.89565 | -105.37713 | 36720 ft | 502 kts | 204° |
| 2026-04-26 02:02 | 78.83043 | -105.50904 | 36723 ft | 502 kts | 204° |
| 2026-04-26 02:02 | 78.76511 | -105.63952 | 36713 ft | 502 kts | 204° |
| 2026-04-26 02:03 | 78.70028 | -105.76741 | 36732 ft | 501 kts | 204° |
| 2026-04-26 02:03 | 78.63511 | -105.89447 | 36732 ft | 501 kts | 204° |
| 2026-04-26 02:04 | 78.56983 | -106.02018 | 36731 ft | 501 kts | 204° |
| 2026-04-26 02:04 | 78.50490 | -106.14372 | 36733 ft | 501 kts | 204° |
| 2026-04-26 02:05 | 78.43963 | -106.26644 | 36733 ft | 501 kts | 204° |
| 2026-04-26 02:05 | 78.37406 | -106.38826 | 36739 ft | 501 kts | 203° |
| 2026-04-26 02:06 | 78.30897 | -106.50775 | 36733 ft | 501 kts | 203° |
| 2026-04-26 02:06 | 78.24339 | -106.62672 | 36733 ft | 501 kts | 203° |
| 2026-04-26 02:07 | 78.17775 | -106.74442 | 36730 ft | 501 kts | 203° |
| 2026-04-26 02:07 | 78.11243 | -106.86019 | 36742 ft | 501 kts | 203° |
| 2026-04-26 02:08 | 78.04678 | -106.97518 | 36736 ft | 501 kts | 203° |
| 2026-04-26 02:08 | 77.98097 | -107.08917 | 36736 ft | 502 kts | 203° |
| 2026-04-26 02:09 | 77.91548 | -107.20130 | 36735 ft | 502 kts | 202° |
| 2026-04-26 02:09 | 77.84947 | -107.31303 | 36736 ft | 502 kts | 202° |
| 2026-04-26 02:10 | 77.78397 | -107.42266 | 36740 ft | 502 kts | 202° |
| 2026-04-26 02:10 | 77.71788 | -107.53203 | 36737 ft | 502 kts | 202° |
| 2026-04-26 02:11 | 77.65225 | -107.63944 | 36743 ft | 502 kts | 202° |
| 2026-04-26 02:11 | 77.58620 | -107.74632 | 36729 ft | 501 kts | 202° |
| 2026-04-26 02:12 | 77.52056 | -107.85138 | 36733 ft | 501 kts | 202° |
| 2026-04-26 02:12 | 77.45458 | -107.95586 | 36737 ft | 501 kts | 202° |
| 2026-04-26 02:13 | 77.38888 | -108.05875 | 36735 ft | 501 kts | 202° |
| 2026-04-26 02:13 | 77.32265 | -108.16133 | 36738 ft | 501 kts | 202° |
| 2026-04-26 02:14 | 77.25681 | -108.26222 | 36735 ft | 501 kts | 202° |
| 2026-04-26 02:14 | 77.19053 | -108.36269 | 36748 ft | 501 kts | 201° |
| 2026-04-26 02:15 | 77.12452 | -108.46167 | 36734 ft | 501 kts | 201° |
| 2026-04-26 02:15 | 77.05847 | -108.55968 | 36734 ft | 501 kts | 201° |
| 2026-04-26 02:16 | 76.99213 | -108.65704 | 36747 ft | 501 kts | 201° |
| 2026-04-26 02:16 | 76.92579 | -108.75340 | 36747 ft | 500 kts | 201° |
| 2026-04-26 02:17 | 76.86000 | -108.84801 | 36735 ft | 501 kts | 201° |
| 2026-04-26 02:17 | 76.79358 | -108.94252 | 36741 ft | 501 kts | 201° |
| 2026-04-26 02:18 | 76.72749 | -109.03557 | 36739 ft | 501 kts | 201° |
| 2026-04-26 02:18 | 76.66100 | -109.12825 | 36737 ft | 501 kts | 201° |
| 2026-04-26 02:19 | 76.59437 | -109.22016 | 36741 ft | 501 kts | 201° |
| 2026-04-26 02:19 | 76.52814 | -109.31058 | 36737 ft | 501 kts | 201° |
| 2026-04-26 02:20 | 76.46150 | -109.40063 | 36741 ft | 501 kts | 201° |
| 2026-04-26 02:20 | 76.39490 | -109.48972 | 36740 ft | 501 kts | 201° |
| 2026-04-26 02:21 | 76.32862 | -109.57751 | 36738 ft | 501 kts | 201° |
| 2026-04-26 02:21 | 76.26191 | -109.66497 | 36749 ft | 501 kts | 201° |
| 2026-04-26 02:22 | 76.19528 | -109.75147 | 36739 ft | 501 kts | 200° |
| 2026-04-26 02:22 | 76.12891 | -109.83679 | 36752 ft | 501 kts | 200° |
| 2026-04-26 02:23 | 76.06247 | -109.92137 | 36753 ft | 501 kts | 200° |
| 2026-04-26 02:23 | 75.99552 | -110.00577 | 36750 ft | 502 kts | 200° |
| 2026-04-26 02:24 | 75.92873 | -110.08648 | 36751 ft | 502 kts | 199° |
| 2026-04-26 02:24 | 75.87247 | -110.15186 | 36729 ft | 502 kts | 199° |
| 2026-04-26 02:25 | 75.80560 | -110.22901 | 36752 ft | 501 kts | 199° |
| 2026-04-26 02:25 | 75.73833 | -110.30643 | 36750 ft | 501 kts | 199° |
| 2026-04-26 02:26 | 75.67107 | -110.38335 | 36752 ft | 501 kts | 199° |
| 2026-04-26 02:26 | 75.60382 | -110.45956 | 36752 ft | 502 kts | 199° |
| 2026-04-26 02:27 | 75.53689 | -110.53468 | 36758 ft | 502 kts | 199° |
| 2026-04-26 02:27 | 75.46936 | -110.60972 | 36752 ft | 502 kts | 199° |
| 2026-04-26 02:28 | 75.40203 | -110.68386 | 36756 ft | 502 kts | 199° |
| 2026-04-26 02:28 | 75.33486 | -110.75712 | 36757 ft | 502 kts | 199° |
| 2026-04-26 02:29 | 75.26751 | -110.82989 | 36744 ft | 502 kts | 199° |
| 2026-04-26 02:29 | 75.19992 | -110.90224 | 36738 ft | 501 kts | 199° |
| 2026-04-26 02:30 | 75.13290 | -110.97334 | 36762 ft | 502 kts | 199° |
| 2026-04-26 02:30 | 75.06534 | -111.04435 | 36770 ft | 502 kts | 199° |
| 2026-04-26 02:31 | 74.99771 | -111.11477 | 36761 ft | 502 kts | 198° |
| 2026-04-26 02:31 | 74.93062 | -111.18400 | 36763 ft | 502 kts | 198° |
| 2026-04-26 02:32 | 74.86308 | -111.25308 | 36755 ft | 502 kts | 198° |
| 2026-04-26 02:32 | 74.79534 | -111.32174 | 36754 ft | 502 kts | 198° |
| 2026-04-26 02:33 | 74.72803 | -111.38935 | 36750 ft | 503 kts | 198° |
| 2026-04-26 02:33 | 74.66022 | -111.45685 | 36747 ft | 503 kts | 198° |
| 2026-04-26 02:34 | 74.59241 | -111.52374 | 36751 ft | 502 kts | 198° |
| 2026-04-26 02:34 | 74.52508 | -111.58960 | 36738 ft | 502 kts | 198° |
| 2026-04-26 02:35 | 74.45735 | -111.65527 | 36738 ft | 502 kts | 198° |
| 2026-04-26 02:35 | 74.38958 | -111.72040 | 36734 ft | 502 kts | 198° |
| 2026-04-26 02:36 | 74.32214 | -111.78465 | 36723 ft | 503 kts | 198° |
| 2026-04-26 02:36 | 74.25425 | -111.84877 | 36715 ft | 503 kts | 198° |
| 2026-04-26 02:37 | 74.18680 | -111.91191 | 36715 ft | 503 kts | 198° |
| 2026-04-26 02:37 | 74.11863 | -111.97518 | 36715 ft | 503 kts | 198° |
| 2026-04-26 02:38 | 74.05111 | -112.03731 | 36691 ft | 502 kts | 198° |
| 2026-04-26 02:38 | 73.98307 | -112.09938 | 36693 ft | 502 kts | 198° |
| 2026-04-26 02:39 | 73.91524 | -112.16074 | 36673 ft | 502 kts | 198° |
| 2026-04-26 02:39 | 73.84767 | -112.22138 | 36672 ft | 503 kts | 198° |
| 2026-04-26 02:40 | 73.77978 | -112.28178 | 36670 ft | 503 kts | 198° |
| 2026-04-26 02:40 | 73.71155 | -112.34196 | 36673 ft | 503 kts | 198° |
| 2026-04-26 02:41 | 73.64332 | -112.40164 | 36673 ft | 504 kts | 197° |
| 2026-04-26 02:41 | 73.57563 | -112.46035 | 36654 ft | 504 kts | 197° |
| 2026-04-26 02:42 | 73.50735 | -112.51910 | 36627 ft | 503 kts | 198° |
| 2026-04-26 02:42 | 73.43955 | -112.57691 | 36654 ft | 503 kts | 197° |
| 2026-04-26 02:43 | 73.33731 | -112.66328 | 36636 ft | 503 kts | 197° |
| 2026-04-26 02:43 | 73.26939 | -112.72006 | 36647 ft | 503 kts | 197° |
| 2026-04-26 02:44 | 73.20159 | -112.77628 | 36639 ft | 503 kts | 197° |
| 2026-04-26 02:44 | 73.13331 | -112.83244 | 36632 ft | 503 kts | 197° |
| 2026-04-26 02:45 | 73.06517 | -112.88804 | 36623 ft | 504 kts | 197° |
| 2026-04-26 02:45 | 72.99717 | -112.94309 | 36628 ft | 504 kts | 197° |
| 2026-04-26 02:46 | 72.92866 | -112.99810 | 36625 ft | 505 kts | 197° |
| 2026-04-26 02:46 | 72.86069 | -113.05223 | 36616 ft | 504 kts | 197° |
| 2026-04-26 02:47 | 72.79237 | -113.10620 | 36616 ft | 504 kts | 197° |
| 2026-04-26 02:47 | 72.72401 | -113.15981 | 36612 ft | 504 kts | 197° |
| 2026-04-26 02:48 | 72.65588 | -113.21281 | 36596 ft | 504 kts | 197° |
| 2026-04-26 02:48 | 72.58720 | -113.26583 | 36602 ft | 505 kts | 197° |
| 2026-04-26 02:49 | 72.51870 | -113.31829 | 36603 ft | 505 kts | 197° |
| 2026-04-26 02:49 | 72.45040 | -113.37017 | 36594 ft | 505 kts | 197° |
| 2026-04-26 02:50 | 72.38164 | -113.42201 | 36591 ft | 505 kts | 197° |
| 2026-04-26 02:50 | 72.31330 | -113.47314 | 36592 ft | 505 kts | 197° |
| 2026-04-26 02:51 | 72.24451 | -113.52420 | 36585 ft | 506 kts | 197° |
| 2026-04-26 02:51 | 72.17603 | -113.57467 | 36587 ft | 507 kts | 197° |
| 2026-04-26 02:52 | 72.10700 | -113.62515 | 36587 ft | 508 kts | 197° |
| 2026-04-26 02:52 | 72.03810 | -113.67512 | 36591 ft | 508 kts | 197° |
| 2026-04-26 02:53 | 71.96890 | -113.72494 | 36590 ft | 508 kts | 197° |
| 2026-04-26 02:53 | 71.90020 | -113.77403 | 36595 ft | 508 kts | 197° |
| 2026-04-26 02:54 | 71.83109 | -113.82306 | 36572 ft | 508 kts | 197° |
| 2026-04-26 02:54 | 71.76220 | -113.87157 | 36571 ft | 509 kts | 197° |
| 2026-04-26 02:55 | 71.69273 | -113.92010 | 36584 ft | 510 kts | 197° |
| 2026-04-26 02:55 | 71.62339 | -113.96817 | 36591 ft | 510 kts | 197° |
| 2026-04-26 02:56 | 71.55406 | -114.01589 | 36590 ft | 510 kts | 197° |
| 2026-04-26 02:56 | 71.48511 | -114.06300 | 36584 ft | 510 kts | 197° |
| 2026-04-26 02:57 | 71.41563 | -114.11012 | 36585 ft | 510 kts | 196° |
| 2026-04-26 02:57 | 71.34594 | -114.15706 | 36591 ft | 511 kts | 196° |
| 2026-04-26 02:58 | 71.27657 | -114.20341 | 36581 ft | 512 kts | 196° |
| 2026-04-26 02:58 | 71.20673 | -114.24973 | 36589 ft | 512 kts | 196° |
| 2026-04-26 02:59 | 71.13751 | -114.29535 | 36584 ft | 512 kts | 197° |
| 2026-04-26 02:59 | 71.06774 | -114.34094 | 36575 ft | 511 kts | 197° |
| 2026-04-26 03:00 | 70.99811 | -114.38612 | 36573 ft | 512 kts | 196° |
| 2026-04-26 03:00 | 70.92806 | -114.43128 | 36582 ft | 513 kts | 196° |
| 2026-04-26 03:01 | 70.85852 | -114.47577 | 36579 ft | 513 kts | 196° |
| 2026-04-26 03:01 | 70.78845 | -114.52026 | 36568 ft | 513 kts | 196° |
| 2026-04-26 03:02 | 70.71830 | -114.56450 | 36562 ft | 513 kts | 196° |
| 2026-04-26 03:02 | 70.64871 | -114.60807 | 36562 ft | 513 kts | 196° |
| 2026-04-26 03:03 | 70.57867 | -114.65162 | 36533 ft | 514 kts | 196° |
| 2026-04-26 03:03 | 70.50893 | -114.69469 | 36539 ft | 514 kts | 196° |
| 2026-04-26 03:04 | 70.43868 | -114.73775 | 36532 ft | 514 kts | 196° |
| 2026-04-26 03:04 | 70.36855 | -114.78045 | 36514 ft | 514 kts | 196° |
| 2026-04-26 03:05 | 70.29870 | -114.82268 | 36513 ft | 514 kts | 196° |
| 2026-04-26 03:05 | 70.22856 | -114.86478 | 36513 ft | 514 kts | 196° |
| 2026-04-26 03:06 | 70.15832 | -114.90668 | 36512 ft | 515 kts | 195° |
| 2026-04-26 03:06 | 70.08851 | -114.94804 | 36506 ft | 515 kts | 195° |
| 2026-04-26 03:07 | 70.01797 | -114.98951 | 36495 ft | 515 kts | 195° |
| 2026-04-26 03:07 | 69.94760 | -115.02857 | 36509 ft | 514 kts | 194° |
| 2026-04-26 03:08 | 69.87721 | -115.06221 | 36500 ft | 514 kts | 193° |
| 2026-04-26 03:08 | 69.80635 | -115.09553 | 36500 ft | 514 kts | 193° |
| 2026-04-26 03:09 | 69.74733 | -115.12378 | 36505 ft | 515 kts | 193° |
| 2026-04-26 03:09 | 69.67695 | -115.15770 | 36500 ft | 515 kts | 193° |
| 2026-04-26 03:10 | 69.60604 | -115.19175 | 36500 ft | 515 kts | 193° |
| 2026-04-26 03:10 | 69.53530 | -115.22545 | 36500 ft | 515 kts | 193° |
| 2026-04-26 03:11 | 69.46486 | -115.25876 | 36508 ft | 515 kts | 193° |
| 2026-04-26 03:11 | 69.39413 | -115.29199 | 36494 ft | 513 kts | 193° |
| 2026-04-26 03:12 | 69.32420 | -115.32460 | 36489 ft | 511 kts | 193° |
| 2026-04-26 03:12 | 69.25389 | -115.35721 | 36497 ft | 511 kts | 193° |
| 2026-04-26 03:13 | 69.18356 | -115.38962 | 36484 ft | 511 kts | 193° |
| 2026-04-26 03:13 | 69.11359 | -115.42165 | 36479 ft | 511 kts | 193° |
| 2026-04-26 03:14 | 69.04349 | -115.45352 | 36487 ft | 511 kts | 193° |
| 2026-04-26 03:14 | 68.97300 | -115.48537 | 36464 ft | 511 kts | 193° |
| 2026-04-26 03:15 | 68.90295 | -115.51682 | 36470 ft | 512 kts | 193° |
| 2026-04-26 03:15 | 68.83244 | -115.54825 | 36468 ft | 511 kts | 193° |
| 2026-04-26 03:16 | 68.76233 | -115.57927 | 36473 ft | 508 kts | 193° |
| 2026-04-26 03:16 | 68.69295 | -115.60982 | 36459 ft | 508 kts | 193° |
| 2026-04-26 03:17 | 68.62297 | -115.64045 | 36465 ft | 507 kts | 193° |
| 2026-04-26 03:17 | 68.55308 | -115.67085 | 36472 ft | 508 kts | 192° |
| 2026-04-26 03:18 | 68.48340 | -115.70096 | 36459 ft | 509 kts | 192° |
| 2026-04-26 03:18 | 68.41338 | -115.73101 | 36466 ft | 509 kts | 192° |
| 2026-04-26 03:19 | 68.34327 | -115.76092 | 36470 ft | 509 kts | 192° |
| 2026-04-26 03:19 | 68.27355 | -115.79047 | 36447 ft | 509 kts | 192° |
| 2026-04-26 03:20 | 68.20361 | -115.81993 | 36458 ft | 505 kts | 192° |
| 2026-04-26 03:20 | 68.13453 | -115.84885 | 36469 ft | 505 kts | 192° |
| 2026-04-26 03:21 | 68.06497 | -115.87782 | 36466 ft | 506 kts | 192° |
| 2026-04-26 03:21 | 67.99539 | -115.90662 | 36463 ft | 506 kts | 192° |
| 2026-04-26 03:22 | 67.92577 | -115.93524 | 36462 ft | 506 kts | 192° |
| 2026-04-26 03:22 | 67.85654 | -115.96354 | 36466 ft | 506 kts | 192° |
| 2026-04-26 03:23 | 67.78687 | -115.99185 | 36454 ft | 506 kts | 192° |
| 2026-04-26 03:23 | 67.71689 | -116.02012 | 36465 ft | 507 kts | 192° |
| 2026-04-26 03:24 | 67.64749 | -116.04798 | 36462 ft | 505 kts | 191° |
| 2026-04-26 03:24 | 67.57800 | -116.07567 | 36459 ft | 504 kts | 191° |
| 2026-04-26 03:25 | 67.50865 | -116.10318 | 36470 ft | 503 kts | 191° |
| 2026-04-26 03:25 | 67.43947 | -116.13046 | 36473 ft | 503 kts | 191° |
| 2026-04-26 03:26 | 67.37007 | -116.15769 | 36481 ft | 505 kts | 191° |
| 2026-04-26 03:26 | 67.30080 | -116.18468 | 36478 ft | 506 kts | 191° |
| 2026-04-26 03:27 | 67.23102 | -116.21172 | 36498 ft | 506 kts | 191° |
| 2026-04-26 03:27 | 67.16125 | -116.23858 | 36487 ft | 506 kts | 191° |
| 2026-04-26 03:28 | 67.09200 | -116.26511 | 36498 ft | 505 kts | 191° |
| 2026-04-26 03:28 | 67.02249 | -116.29157 | 36490 ft | 503 kts | 191° |
| 2026-04-26 03:29 | 66.95306 | -116.31785 | 36512 ft | 505 kts | 191° |
| 2026-04-26 03:29 | 66.88345 | -116.34405 | 36505 ft | 505 kts | 191° |
| 2026-04-26 03:30 | 66.81429 | -116.36991 | 36506 ft | 505 kts | 191° |
| 2026-04-26 03:30 | 66.74457 | -116.39585 | 36512 ft | 505 kts | 191° |
| 2026-04-26 03:31 | 66.67486 | -116.42163 | 36511 ft | 505 kts | 191° |
| 2026-04-26 03:31 | 66.60565 | -116.44710 | 36500 ft | 506 kts | 190° |
| 2026-04-26 03:32 | 66.53561 | -116.47273 | 36499 ft | 507 kts | 190° |
| 2026-04-26 03:32 | 66.46604 | -116.49802 | 36513 ft | 507 kts | 190° |
| 2026-04-26 03:33 | 66.39603 | -116.52333 | 36492 ft | 507 kts | 190° |
| 2026-04-26 03:33 | 66.32592 | -116.54854 | 36500 ft | 507 kts | 190° |
| 2026-04-26 03:34 | 66.25626 | -116.57345 | 36496 ft | 507 kts | 190° |
| 2026-04-26 03:34 | 66.18587 | -116.59852 | 36500 ft | 510 kts | 190° |
| 2026-04-26 03:35 | 66.11597 | -116.62322 | 36512 ft | 511 kts | 190° |
| 2026-04-26 03:35 | 66.04557 | -116.64796 | 36513 ft | 511 kts | 190° |
| 2026-04-26 03:36 | 65.97508 | -116.67260 | 36491 ft | 510 kts | 190° |
| 2026-04-26 03:36 | 65.90481 | -116.69702 | 36503 ft | 508 kts | 190° |
| 2026-04-26 03:37 | 65.83504 | -116.72116 | 36516 ft | 510 kts | 189° |
| 2026-04-26 03:37 | 65.76451 | -116.74543 | 36517 ft | 511 kts | 189° |
| 2026-04-26 03:38 | 65.69393 | -116.76956 | 36502 ft | 511 kts | 189° |
| 2026-04-26 03:38 | 65.62374 | -116.79343 | 36503 ft | 511 kts | 189° |
| 2026-04-26 03:39 | 65.55314 | -116.81731 | 36511 ft | 511 kts | 189° |
| 2026-04-26 03:39 | 65.48256 | -116.84105 | 36503 ft | 511 kts | 189° |
| 2026-04-26 03:40 | 65.41231 | -116.86456 | 36497 ft | 511 kts | 189° |
| 2026-04-26 03:40 | 65.34202 | -116.88794 | 36511 ft | 509 kts | 189° |
| 2026-04-26 03:41 | 65.27162 | -116.91124 | 36507 ft | 509 kts | 189° |
| 2026-04-26 03:41 | 65.20181 | -116.93423 | 36505 ft | 509 kts | 189° |
| 2026-04-26 03:42 | 65.13150 | -116.95726 | 36505 ft | 509 kts | 189° |
| 2026-04-26 03:42 | 65.06108 | -116.98022 | 36498 ft | 512 kts | 189° |
| 2026-04-26 03:43 | 64.99076 | -117.00300 | 36501 ft | 513 kts | 189° |
| 2026-04-26 03:43 | 64.91974 | -117.02146 | 36503 ft | 513 kts | 186° |
| 2026-04-26 03:44 | 64.84846 | -117.03677 | 36477 ft | 513 kts | 186° |
| 2026-04-26 03:44 | 64.77776 | -117.05236 | 36492 ft | 512 kts | 187° |
| 2026-04-26 03:45 | 64.70687 | -117.06864 | 36493 ft | 513 kts | 186° |
| 2026-04-26 03:45 | 64.63539 | -117.08522 | 36495 ft | 515 kts | 186° |
| 2026-04-26 03:46 | 64.56442 | -117.10159 | 36481 ft | 515 kts | 186° |
| 2026-04-26 03:47 | 64.45717 | -117.12612 | 36488 ft | 515 kts | 186° |
| 2026-04-26 03:47 | 64.38607 | -117.14227 | 36476 ft | 515 kts | 186° |
| 2026-04-26 03:48 | 64.31437 | -117.15849 | 36483 ft | 518 kts | 186° |
| 2026-04-26 03:48 | 64.24246 | -117.17465 | 36483 ft | 519 kts | 186° |
| 2026-04-26 03:49 | 64.17079 | -117.19067 | 36487 ft | 517 kts | 186° |
| 2026-04-26 03:49 | 64.09896 | -117.20664 | 36483 ft | 517 kts | 186° |
| 2026-04-26 03:50 | 64.02774 | -117.22240 | 36486 ft | 517 kts | 186° |
| 2026-04-26 03:50 | 63.95575 | -117.23827 | 36487 ft | 520 kts | 186° |
| 2026-04-26 03:51 | 63.88373 | -117.25403 | 36487 ft | 522 kts | 186° |
| 2026-04-26 03:51 | 63.81141 | -117.26978 | 36487 ft | 522 kts | 186° |
| 2026-04-26 03:52 | 63.73910 | -117.28545 | 36486 ft | 522 kts | 186° |
| 2026-04-26 03:52 | 63.66681 | -117.30104 | 36480 ft | 521 kts | 186° |
| 2026-04-26 03:53 | 63.60678 | -117.31397 | 36485 ft | 523 kts | 185° |
| 2026-04-26 03:53 | 63.53418 | -117.32946 | 36487 ft | 524 kts | 185° |
| 2026-04-26 03:54 | 63.46173 | -117.34484 | 36487 ft | 524 kts | 185° |
| 2026-04-26 03:54 | 63.38886 | -117.36024 | 36487 ft | 524 kts | 185° |
| 2026-04-26 03:55 | 63.31619 | -117.37553 | 36495 ft | 524 kts | 185° |
| 2026-04-26 03:55 | 63.24379 | -117.39068 | 36496 ft | 526 kts | 185° |
| 2026-04-26 03:56 | 63.17053 | -117.40594 | 36492 ft | 528 kts | 185° |
| 2026-04-26 03:56 | 63.09735 | -117.42110 | 36488 ft | 528 kts | 185° |
| 2026-04-26 03:57 | 63.02457 | -117.43612 | 36496 ft | 527 kts | 185° |
| 2026-04-26 03:57 | 62.95127 | -117.45116 | 36489 ft | 527 kts | 185° |
| 2026-04-26 03:58 | 62.87805 | -117.46610 | 36495 ft | 530 kts | 185° |
| 2026-04-26 03:58 | 62.80490 | -117.48095 | 36495 ft | 531 kts | 185° |
| 2026-04-26 03:59 | 62.73101 | -117.49589 | 36489 ft | 531 kts | 185° |
| 2026-04-26 03:59 | 62.65769 | -117.51063 | 36489 ft | 531 kts | 185° |
| 2026-04-26 04:00 | 62.58396 | -117.52538 | 36492 ft | 531 kts | 185° |
| 2026-04-26 04:00 | 62.51007 | -117.54011 | 36485 ft | 534 kts | 185° |
| 2026-04-26 04:01 | 62.43611 | -117.55475 | 36484 ft | 534 kts | 185° |
| 2026-04-26 04:01 | 62.36252 | -117.56925 | 36482 ft | 533 kts | 185° |
| 2026-04-26 04:02 | 62.28849 | -117.58377 | 36475 ft | 533 kts | 185° |
| 2026-04-26 04:02 | 62.21448 | -117.59822 | 36494 ft | 534 kts | 184° |
| 2026-04-26 04:03 | 62.14018 | -117.61265 | 36473 ft | 537 kts | 184° |
| 2026-04-26 04:03 | 62.06559 | -117.62706 | 36465 ft | 538 kts | 184° |
| 2026-04-26 04:04 | 61.99135 | -117.64134 | 36447 ft | 538 kts | 185° |
| 2026-04-26 04:04 | 61.91687 | -117.65560 | 36468 ft | 537 kts | 185° |
| 2026-04-26 04:05 | 61.84229 | -117.66980 | 36459 ft | 537 kts | 185° |
| 2026-04-26 04:05 | 61.76779 | -117.68391 | 36458 ft | 537 kts | 185° |
| 2026-04-26 04:06 | 61.69375 | -117.69788 | 36460 ft | 537 kts | 185° |
| 2026-04-26 04:06 | 61.61928 | -117.71186 | 36453 ft | 537 kts | 185° |
| 2026-04-26 04:07 | 61.54472 | -117.72578 | 36453 ft | 537 kts | 185° |
| 2026-04-26 04:07 | 61.47058 | -117.73957 | 36458 ft | 539 kts | 184° |
| 2026-04-26 04:08 | 61.39561 | -117.75345 | 36448 ft | 539 kts | 185° |
| 2026-04-26 04:08 | 61.32074 | -117.76723 | 36457 ft | 539 kts | 185° |
| 2026-04-26 04:09 | 61.24640 | -117.78084 | 36450 ft | 539 kts | 184° |
| 2026-04-26 04:09 | 61.17130 | -117.79453 | 36464 ft | 539 kts | 184° |
| 2026-04-26 04:10 | 61.09680 | -117.80806 | 36445 ft | 542 kts | 184° |
| 2026-04-26 04:10 | 61.02159 | -117.82164 | 36446 ft | 542 kts | 184° |
| 2026-04-26 04:11 | 60.94643 | -117.83516 | 36442 ft | 542 kts | 184° |
| 2026-04-26 04:11 | 60.87108 | -117.84864 | 36440 ft | 542 kts | 184° |
| 2026-04-26 04:12 | 60.79584 | -117.86205 | 36435 ft | 542 kts | 184° |
| 2026-04-26 04:12 | 60.72101 | -117.87532 | 36428 ft | 543 kts | 184° |
| 2026-04-26 04:13 | 60.64566 | -117.88860 | 36429 ft | 543 kts | 184° |
| 2026-04-26 04:13 | 60.57034 | -117.90183 | 36427 ft | 543 kts | 184° |
| 2026-04-26 04:14 | 60.49486 | -117.91502 | 36457 ft | 543 kts | 184° |
| 2026-04-26 04:14 | 60.41965 | -117.92811 | 36421 ft | 541 kts | 184° |
| 2026-04-26 04:15 | 60.34503 | -117.94103 | 36388 ft | 541 kts | 184° |
| 2026-04-26 04:15 | 60.26955 | -117.95402 | 36405 ft | 545 kts | 184° |
| 2026-04-26 04:16 | 60.19377 | -117.96702 | 36404 ft | 546 kts | 184° |
| 2026-04-26 04:16 | 60.11798 | -117.97998 | 36392 ft | 545 kts | 184° |
| 2026-04-26 04:17 | 60.04280 | -117.99276 | 36387 ft | 544 kts | 184° |
| 2026-04-26 04:17 | 59.96726 | -118.00609 | 36389 ft | 544 kts | 185° |
| 2026-04-26 04:18 | 59.89181 | -118.02442 | 36376 ft | 544 kts | 186° |
| 2026-04-26 04:18 | 59.81712 | -118.04379 | 36364 ft | 545 kts | 186° |
| 2026-04-26 04:19 | 59.74163 | -118.06259 | 36386 ft | 546 kts | 186° |
| 2026-04-26 04:19 | 59.66590 | -118.08085 | 36369 ft | 547 kts | 186° |
| 2026-04-26 04:20 | 59.59021 | -118.09888 | 36379 ft | 547 kts | 186° |
| 2026-04-26 04:20 | 59.51511 | -118.11670 | 36365 ft | 547 kts | 186° |
| 2026-04-26 04:21 | 59.43957 | -118.13457 | 36369 ft | 545 kts | 186° |
| 2026-04-26 04:21 | 59.36415 | -118.15234 | 36368 ft | 543 kts | 186° |
| 2026-04-26 04:22 | 59.28938 | -118.16987 | 36352 ft | 545 kts | 186° |
| 2026-04-26 04:22 | 59.21367 | -118.18753 | 36356 ft | 548 kts | 186° |
| 2026-04-26 04:23 | 59.13778 | -118.20518 | 36352 ft | 549 kts | 186° |
| 2026-04-26 04:23 | 59.06206 | -118.22272 | 36337 ft | 546 kts | 186° |
| 2026-04-26 04:24 | 58.98650 | -118.24013 | 36337 ft | 545 kts | 186° |
| 2026-04-26 04:24 | 58.91112 | -118.25741 | 36324 ft | 545 kts | 186° |
| 2026-04-26 04:25 | 58.83620 | -118.27452 | 36322 ft | 545 kts | 186° |
| 2026-04-26 04:25 | 58.76069 | -118.29169 | 36326 ft | 548 kts | 186° |
| 2026-04-26 04:26 | 58.68466 | -118.30890 | 36315 ft | 550 kts | 186° |
| 2026-04-26 04:26 | 58.60844 | -118.32608 | 36315 ft | 550 kts | 186° |
| 2026-04-26 04:27 | 58.53283 | -118.34306 | 36313 ft | 550 kts | 186° |
| 2026-04-26 04:27 | 58.45656 | -118.36010 | 36309 ft | 550 kts | 185° |
| 2026-04-26 04:28 | 58.38077 | -118.37696 | 36310 ft | 550 kts | 185° |
| 2026-04-26 04:28 | 58.30452 | -118.39384 | 36295 ft | 551 kts | 185° |
| 2026-04-26 04:29 | 58.22794 | -118.41073 | 36305 ft | 555 kts | 185° |
| 2026-04-26 04:29 | 58.15133 | -118.42755 | 36298 ft | 556 kts | 185° |
| 2026-04-26 04:30 | 58.07449 | -118.44436 | 36291 ft | 553 kts | 185° |
| 2026-04-26 04:30 | 57.99855 | -118.46089 | 36291 ft | 552 kts | 185° |
| 2026-04-26 04:31 | 57.92199 | -118.47748 | 36283 ft | 552 kts | 185° |
| 2026-04-26 04:31 | 57.84549 | -118.49399 | 36282 ft | 552 kts | 185° |
| 2026-04-26 04:32 | 57.76945 | -118.51033 | 36282 ft | 554 kts | 185° |
| 2026-04-26 04:32 | 57.69273 | -118.52676 | 36270 ft | 553 kts | 185° |
| 2026-04-26 04:33 | 57.61610 | -118.54309 | 36271 ft | 553 kts | 185° |
| 2026-04-26 04:33 | 57.53931 | -118.55938 | 36259 ft | 553 kts | 185° |
| 2026-04-26 04:34 | 57.46325 | -118.57545 | 36286 ft | 553 kts | 185° |
| 2026-04-26 04:34 | 57.38696 | -118.59151 | 36266 ft | 551 kts | 185° |
| 2026-04-26 04:35 | 57.31070 | -118.60748 | 36245 ft | 552 kts | 185° |
| 2026-04-26 04:35 | 57.24711 | -118.62075 | 36250 ft | 554 kts | 185° |
| 2026-04-26 04:36 | 57.17052 | -118.63668 | 36252 ft | 554 kts | 185° |
| 2026-04-26 04:36 | 57.09393 | -118.65254 | 36240 ft | 552 kts | 185° |
| 2026-04-26 04:37 | 57.01756 | -118.66830 | 36242 ft | 550 kts | 185° |
| 2026-04-26 04:37 | 56.94182 | -118.68385 | 36238 ft | 550 kts | 185° |
| 2026-04-26 04:38 | 56.86567 | -118.69942 | 36205 ft | 550 kts | 185° |
| 2026-04-26 04:38 | 56.78917 | -118.71500 | 36247 ft | 552 kts | 185° |
| 2026-04-26 04:39 | 56.71281 | -118.73049 | 36235 ft | 552 kts | 185° |
| 2026-04-26 04:39 | 56.63664 | -118.74588 | 36238 ft | 552 kts | 185° |
| 2026-04-26 04:40 | 56.56008 | -118.76129 | 36228 ft | 552 kts | 185° |
| 2026-04-26 04:40 | 56.48401 | -118.77653 | 36239 ft | 551 kts | 185° |
| 2026-04-26 04:41 | 56.40783 | -118.79174 | 36229 ft | 550 kts | 185° |
| 2026-04-26 04:41 | 56.33155 | -118.80689 | 36225 ft | 552 kts | 185° |
| 2026-04-26 04:42 | 56.25512 | -118.82202 | 36222 ft | 552 kts | 185° |
| 2026-04-26 04:42 | 56.17912 | -118.83701 | 36244 ft | 552 kts | 185° |
| 2026-04-26 04:43 | 56.10285 | -118.85199 | 36224 ft | 549 kts | 185° |
| 2026-04-26 04:43 | 56.02683 | -118.86687 | 36225 ft | 549 kts | 185° |
| 2026-04-26 04:44 | 55.95085 | -118.88168 | 36224 ft | 549 kts | 185° |
| 2026-04-26 04:44 | 55.87490 | -118.89641 | 36227 ft | 549 kts | 185° |
| 2026-04-26 04:45 | 55.79951 | -118.91099 | 36224 ft | 547 kts | 185° |
| 2026-04-26 04:45 | 55.72392 | -118.92555 | 36224 ft | 546 kts | 185° |
| 2026-04-26 04:46 | 55.64827 | -118.94005 | 36228 ft | 546 kts | 185° |
| 2026-04-26 04:46 | 55.57263 | -118.95450 | 36228 ft | 546 kts | 185° |
| 2026-04-26 04:47 | 55.49691 | -118.96892 | 36205 ft | 545 kts | 185° |
| 2026-04-26 04:47 | 55.42143 | -118.98323 | 36176 ft | 547 kts | 185° |
| 2026-04-26 04:48 | 55.30802 | -119.00463 | 36138 ft | 548 kts | 185° |
| 2026-04-26 04:48 | 55.23204 | -119.01890 | 36120 ft | 548 kts | 185° |
| 2026-04-26 04:49 | 55.15613 | -119.03330 | 36119 ft | 548 kts | 186° |
| 2026-04-26 04:49 | 55.08083 | -119.05607 | 36136 ft | 549 kts | 191° |
| 2026-04-26 04:50 | 55.00647 | -119.08260 | 36188 ft | 549 kts | 191° |
| 2026-04-26 04:50 | 54.93116 | -119.10833 | 36217 ft | 551 kts | 190° |
| 2026-04-26 04:51 | 54.85579 | -119.13286 | 36197 ft | 549 kts | 189° |
| 2026-04-26 04:51 | 54.78106 | -119.15671 | 36196 ft | 549 kts | 189° |
| 2026-04-26 04:52 | 54.70593 | -119.18059 | 36198 ft | 549 kts | 189° |
| 2026-04-26 04:52 | 54.63109 | -119.20434 | 36194 ft | 548 kts | 189° |
| 2026-04-26 04:53 | 54.55596 | -119.22811 | 36195 ft | 547 kts | 189° |
| 2026-04-26 04:53 | 54.48110 | -119.25173 | 36191 ft | 546 kts | 189° |
| 2026-04-26 04:54 | 54.40639 | -119.27521 | 36192 ft | 546 kts | 189° |
| 2026-04-26 04:54 | 54.33143 | -119.29868 | 36191 ft | 546 kts | 189° |
| 2026-04-26 04:55 | 54.25704 | -119.32187 | 36198 ft | 545 kts | 190° |
| 2026-04-26 04:55 | 54.18246 | -119.34505 | 36185 ft | 544 kts | 190° |
| 2026-04-26 04:56 | 54.10831 | -119.36802 | 36198 ft | 544 kts | 190° |
| 2026-04-26 04:56 | 54.03366 | -119.39105 | 36191 ft | 544 kts | 189° |
| 2026-04-26 04:57 | 53.95898 | -119.41399 | 36194 ft | 544 kts | 190° |
| 2026-04-26 04:57 | 53.88462 | -119.43676 | 36181 ft | 543 kts | 190° |
| 2026-04-26 04:58 | 53.81013 | -119.45951 | 36181 ft | 543 kts | 189° |
| 2026-04-26 04:58 | 53.73601 | -119.48209 | 36174 ft | 544 kts | 189° |
| 2026-04-26 04:59 | 53.66109 | -119.50254 | 36184 ft | 545 kts | 187° |
| 2026-04-26 04:59 | 53.58584 | -119.51836 | 36160 ft | 543 kts | 186° |
| 2026-04-26 05:00 | 53.51121 | -119.53390 | 36153 ft | 543 kts | 186° |
| 2026-04-26 05:00 | 53.43612 | -119.55029 | 36146 ft | 543 kts | 187° |
| 2026-04-26 05:01 | 53.36115 | -119.56689 | 36138 ft | 543 kts | 187° |
| 2026-04-26 05:01 | 53.28637 | -119.58345 | 36106 ft | 542 kts | 187° |
| 2026-04-26 05:02 | 53.21158 | -119.59994 | 36095 ft | 541 kts | 186° |
| 2026-04-26 05:02 | 53.13737 | -119.61624 | 36095 ft | 541 kts | 187° |
| 2026-04-26 05:03 | 53.06245 | -119.63264 | 36084 ft | 541 kts | 187° |
| 2026-04-26 05:03 | 52.98792 | -119.64890 | 36067 ft | 538 kts | 187° |
| 2026-04-26 05:04 | 52.91410 | -119.66496 | 36046 ft | 538 kts | 187° |
| 2026-04-26 05:04 | 52.83966 | -119.68105 | 36050 ft | 538 kts | 187° |
| 2026-04-26 05:05 | 52.76539 | -119.69706 | 36040 ft | 538 kts | 187° |
| 2026-04-26 05:05 | 52.69119 | -119.71301 | 36012 ft | 537 kts | 187° |
| 2026-04-26 05:06 | 52.61751 | -119.72880 | 36004 ft | 536 kts | 187° |
| 2026-04-26 05:06 | 52.54340 | -119.74463 | 35965 ft | 536 kts | 186° |
| 2026-04-26 05:07 | 52.46915 | -119.76041 | 35999 ft | 538 kts | 186° |
| 2026-04-26 05:07 | 52.39495 | -119.77614 | 35969 ft | 536 kts | 186° |
| 2026-04-26 05:08 | 52.32128 | -119.79174 | 35975 ft | 536 kts | 186° |
| 2026-04-26 05:08 | 52.24736 | -119.80731 | 35968 ft | 535 kts | 186° |
| 2026-04-26 05:09 | 52.17330 | -119.82291 | 35964 ft | 536 kts | 186° |
| 2026-04-26 05:09 | 52.09972 | -119.83832 | 35960 ft | 537 kts | 186° |
| 2026-04-26 05:10 | 52.02533 | -119.85382 | 35960 ft | 538 kts | 186° |
| 2026-04-26 05:10 | 51.95099 | -119.86927 | 35961 ft | 538 kts | 186° |
| 2026-04-26 05:11 | 51.87665 | -119.88467 | 35968 ft | 538 kts | 186° |
| 2026-04-26 05:11 | 51.80300 | -119.89988 | 35959 ft | 535 kts | 186° |
| 2026-04-26 05:12 | 51.72920 | -119.91507 | 35955 ft | 535 kts | 186° |
| 2026-04-26 05:12 | 51.65516 | -119.93026 | 35955 ft | 535 kts | 186° |
| 2026-04-26 05:13 | 51.58109 | -119.94541 | 35960 ft | 534 kts | 186° |
| 2026-04-26 05:13 | 51.50800 | -119.96030 | 35954 ft | 532 kts | 186° |
| 2026-04-26 05:14 | 51.43449 | -119.97524 | 35953 ft | 531 kts | 186° |
| 2026-04-26 05:14 | 51.36104 | -119.99011 | 35953 ft | 531 kts | 186° |
| 2026-04-26 05:15 | 51.28805 | -120.00483 | 35953 ft | 531 kts | 187° |
| 2026-04-26 05:15 | 51.21481 | -120.01957 | 35953 ft | 530 kts | 186° |
| 2026-04-26 05:16 | 51.14158 | -120.03426 | 35947 ft | 529 kts | 186° |
| 2026-04-26 05:16 | 51.06841 | -120.04888 | 35945 ft | 529 kts | 186° |
| 2026-04-26 05:17 | 50.99575 | -120.06338 | 35948 ft | 528 kts | 187° |
| 2026-04-26 05:17 | 50.92272 | -120.07791 | 35925 ft | 527 kts | 186° |
| 2026-04-26 05:18 | 50.85018 | -120.09225 | 35919 ft | 528 kts | 186° |
| 2026-04-26 05:18 | 50.77721 | -120.10665 | 35910 ft | 528 kts | 186° |
| 2026-04-26 05:19 | 50.70452 | -120.12095 | 35904 ft | 526 kts | 187° |
| 2026-04-26 05:19 | 50.64365 | -120.13287 | 35911 ft | 526 kts | 187° |
| 2026-04-26 05:20 | 50.57095 | -120.14710 | 35924 ft | 526 kts | 187° |
| 2026-04-26 05:20 | 50.49865 | -120.16122 | 35924 ft | 526 kts | 187° |
| 2026-04-26 05:21 | 50.42578 | -120.17539 | 35925 ft | 527 kts | 187° |
| 2026-04-26 05:21 | 50.35299 | -120.18950 | 35925 ft | 527 kts | 187° |
| 2026-04-26 05:22 | 50.28053 | -120.20351 | 35925 ft | 527 kts | 187° |
| 2026-04-26 05:22 | 50.20773 | -120.21754 | 35922 ft | 527 kts | 187° |
| 2026-04-26 05:23 | 50.13510 | -120.23149 | 35918 ft | 525 kts | 187° |
| 2026-04-26 05:23 | 50.06234 | -120.24542 | 35919 ft | 526 kts | 187° |
| 2026-04-26 05:24 | 49.99012 | -120.25921 | 35924 ft | 526 kts | 187° |
| 2026-04-26 05:24 | 49.91740 | -120.27305 | 35929 ft | 526 kts | 187° |
| 2026-04-26 05:25 | 49.84477 | -120.28683 | 35913 ft | 523 kts | 187° |
| 2026-04-26 05:25 | 49.77251 | -120.30050 | 35905 ft | 522 kts | 187° |
| 2026-04-26 05:26 | 49.70076 | -120.31403 | 35915 ft | 524 kts | 187° |
| 2026-04-26 05:26 | 49.62836 | -120.32765 | 35910 ft | 523 kts | 187° |
| 2026-04-26 05:27 | 49.55607 | -120.34120 | 35910 ft | 521 kts | 187° |
| 2026-04-26 05:27 | 49.48434 | -120.35461 | 35910 ft | 521 kts | 187° |
| 2026-04-26 05:28 | 49.41219 | -120.36807 | 35908 ft | 521 kts | 187° |
| 2026-04-26 05:28 | 49.33984 | -120.37476 | 35908 ft | 522 kts | 181° |
| 2026-04-26 05:29 | 49.26762 | -120.37678 | 35900 ft | 522 kts | 180° |
| 2026-04-26 05:29 | 49.19495 | -120.37808 | 35897 ft | 522 kts | 180° |
| 2026-04-26 05:30 | 49.12211 | -120.37947 | 35903 ft | 522 kts | 180° |
| 2026-04-26 05:30 | 49.04961 | -120.38099 | 35895 ft | 521 kts | 181° |
| 2026-04-26 05:31 | 48.97735 | -120.38256 | 35877 ft | 521 kts | 181° |
| 2026-04-26 05:31 | 48.90478 | -120.38414 | 35895 ft | 521 kts | 181° |
| 2026-04-26 05:32 | 48.83198 | -120.38571 | 35896 ft | 521 kts | 181° |
| 2026-04-26 05:32 | 48.75945 | -120.38725 | 35897 ft | 521 kts | 181° |
| 2026-04-26 05:33 | 48.68746 | -120.38879 | 35896 ft | 520 kts | 181° |
| 2026-04-26 05:33 | 48.61494 | -120.39034 | 35896 ft | 520 kts | 181° |
| 2026-04-26 05:34 | 48.54254 | -120.39189 | 35883 ft | 519 kts | 181° |
| 2026-04-26 05:34 | 48.47044 | -120.39343 | 35889 ft | 520 kts | 181° |
| 2026-04-26 05:35 | 48.39790 | -120.39496 | 35889 ft | 520 kts | 181° |
| 2026-04-26 05:35 | 48.32555 | -120.39647 | 35889 ft | 518 kts | 181° |
| 2026-04-26 05:36 | 48.25393 | -120.39798 | 35887 ft | 517 kts | 181° |
| 2026-04-26 05:36 | 48.18175 | -120.39950 | 35884 ft | 517 kts | 181° |
| 2026-04-26 05:37 | 48.10983 | -120.40101 | 35888 ft | 517 kts | 181° |
| 2026-04-26 05:37 | 48.03773 | -120.40251 | 35880 ft | 516 kts | 181° |
| 2026-04-26 05:38 | 47.96633 | -120.40400 | 35877 ft | 516 kts | 181° |
| 2026-04-26 05:38 | 47.89455 | -120.40549 | 35874 ft | 516 kts | 181° |
| 2026-04-26 05:39 | 47.82274 | -120.40697 | 35875 ft | 515 kts | 181° |
| 2026-04-26 05:39 | 47.75096 | -120.40845 | 35877 ft | 514 kts | 181° |
| 2026-04-26 05:40 | 47.67972 | -120.40992 | 35874 ft | 514 kts | 181° |
| 2026-04-26 05:40 | 47.60810 | -120.41139 | 35877 ft | 513 kts | 181° |
| 2026-04-26 05:41 | 47.53687 | -120.41285 | 35874 ft | 512 kts | 181° |
| 2026-04-26 05:41 | 47.46609 | -120.41429 | 35873 ft | 511 kts | 181° |
| 2026-04-26 05:42 | 47.39484 | -120.41574 | 35870 ft | 511 kts | 181° |
| 2026-04-26 05:42 | 47.32371 | -120.41718 | 35863 ft | 510 kts | 181° |
| 2026-04-26 05:43 | 47.25265 | -120.41862 | 35874 ft | 510 kts | 181° |
| 2026-04-26 05:43 | 47.18212 | -120.42005 | 35870 ft | 510 kts | 181° |
| 2026-04-26 05:44 | 47.11124 | -120.42147 | 35869 ft | 509 kts | 181° |
| 2026-04-26 05:44 | 47.04015 | -120.42290 | 35878 ft | 508 kts | 181° |
| 2026-04-26 05:45 | 46.96986 | -120.42431 | 35878 ft | 508 kts | 181° |
| 2026-04-26 05:45 | 46.89902 | -120.42573 | 35877 ft | 509 kts | 181° |
| 2026-04-26 05:46 | 46.82798 | -120.42714 | 35874 ft | 509 kts | 181° |
| 2026-04-26 05:46 | 46.75746 | -120.42854 | 35875 ft | 509 kts | 181° |
| 2026-04-26 05:47 | 46.68664 | -120.42994 | 35884 ft | 509 kts | 181° |
| 2026-04-26 05:47 | 46.61575 | -120.43134 | 35886 ft | 508 kts | 181° |
| 2026-04-26 05:48 | 46.54491 | -120.43274 | 35887 ft | 508 kts | 181° |
| 2026-04-26 05:48 | 46.47417 | -120.43413 | 35887 ft | 509 kts | 181° |
| 2026-04-26 05:49 | 46.36799 | -120.43621 | 35881 ft | 508 kts | 181° |
| 2026-04-26 05:50 | 46.29767 | -120.43758 | 35885 ft | 508 kts | 181° |
| 2026-04-26 05:50 | 46.22686 | -120.43897 | 35886 ft | 508 kts | 181° |
| 2026-04-26 05:51 | 46.15659 | -120.44033 | 35884 ft | 506 kts | 181° |
| 2026-04-26 05:51 | 46.08595 | -120.44170 | 35881 ft | 506 kts | 181° |
| 2026-04-26 05:52 | 46.01523 | -120.44307 | 35878 ft | 507 kts | 181° |
| 2026-04-26 05:52 | 45.94517 | -120.44442 | 35878 ft | 507 kts | 181° |
| 2026-04-26 05:53 | 45.87463 | -120.44577 | 35874 ft | 506 kts | 181° |
| 2026-04-26 05:53 | 45.80410 | -120.44713 | 35879 ft | 506 kts | 181° |
| 2026-04-26 05:54 | 45.73384 | -120.44848 | 35877 ft | 507 kts | 181° |
| 2026-04-26 05:54 | 45.66313 | -120.44983 | 35878 ft | 508 kts | 181° |
| 2026-04-26 05:55 | 45.59271 | -120.45117 | 35883 ft | 508 kts | 181° |
| 2026-04-26 05:55 | 45.52187 | -120.45252 | 35881 ft | 508 kts | 181° |
| 2026-04-26 05:56 | 45.45123 | -120.45385 | 35884 ft | 507 kts | 181° |
| 2026-04-26 05:56 | 45.38061 | -120.45520 | 35879 ft | 507 kts | 181° |
| 2026-04-26 05:57 | 45.31026 | -120.45652 | 35884 ft | 508 kts | 181° |
| 2026-04-26 05:57 | 45.23950 | -120.45785 | 35886 ft | 507 kts | 181° |
| 2026-04-26 05:58 | 45.16880 | -120.45917 | 35891 ft | 507 kts | 181° |
| 2026-04-26 05:58 | 45.09849 | -120.46049 | 35892 ft | 507 kts | 181° |
| 2026-04-26 05:59 | 45.02800 | -120.46181 | 35892 ft | 506 kts | 181° |
| 2026-04-26 05:59 | 44.95744 | -120.46313 | 35886 ft | 506 kts | 181° |
| 2026-04-26 06:00 | 44.88692 | -120.46444 | 35890 ft | 506 kts | 181° |
| 2026-04-26 06:00 | 44.81655 | -120.46573 | 35888 ft | 506 kts | 182° |
| 2026-04-26 06:01 | 44.74648 | -120.46703 | 35888 ft | 505 kts | 181° |
| 2026-04-26 06:01 | 44.67627 | -120.46832 | 35887 ft | 504 kts | 181° |
| 2026-04-26 06:02 | 44.60601 | -120.46961 | 35885 ft | 505 kts | 182° |
| 2026-04-26 06:02 | 44.53560 | -120.47090 | 35892 ft | 505 kts | 182° |
| 2026-04-26 06:03 | 44.46571 | -120.47219 | 35888 ft | 505 kts | 182° |
| 2026-04-26 06:03 | 44.39560 | -120.47347 | 35889 ft | 505 kts | 182° |
| 2026-04-26 06:04 | 44.32538 | -120.47474 | 35893 ft | 504 kts | 182° |
| 2026-04-26 06:04 | 44.25518 | -120.47602 | 35890 ft | 504 kts | 182° |
| 2026-04-26 06:05 | 44.18491 | -120.47731 | 35883 ft | 504 kts | 182° |
| 2026-04-26 06:05 | 44.12682 | -120.47835 | 35883 ft | 503 kts | 182° |
| 2026-04-26 06:06 | 44.04512 | -120.47983 | 35879 ft | 502 kts | 182° |
| 2026-04-26 06:06 | 43.98660 | -120.48088 | 35876 ft | 502 kts | 182° |
| 2026-04-26 06:07 | 43.91714 | -120.48212 | 35872 ft | 502 kts | 182° |
| 2026-04-26 06:07 | 43.84720 | -120.48338 | 35870 ft | 501 kts | 182° |
| 2026-04-26 06:08 | 43.77733 | -120.48463 | 35867 ft | 501 kts | 182° |
| 2026-04-26 06:08 | 43.70784 | -120.48586 | 35862 ft | 501 kts | 182° |
| 2026-04-26 06:09 | 43.63795 | -120.48711 | 35860 ft | 501 kts | 182° |
| 2026-04-26 06:09 | 43.56853 | -120.48834 | 35850 ft | 501 kts | 182° |
| 2026-04-26 06:10 | 43.49868 | -120.48958 | 35862 ft | 501 kts | 182° |
| 2026-04-26 06:10 | 43.42937 | -120.49081 | 35857 ft | 500 kts | 182° |
| 2026-04-26 06:11 | 43.35969 | -120.49204 | 35861 ft | 500 kts | 182° |
| 2026-04-26 06:11 | 43.28988 | -120.49326 | 35860 ft | 500 kts | 183° |
| 2026-04-26 06:12 | 43.22071 | -120.49447 | 35857 ft | 499 kts | 183° |
| 2026-04-26 06:12 | 43.15114 | -120.49569 | 35855 ft | 500 kts | 183° |
| 2026-04-26 06:13 | 43.08158 | -120.49689 | 35857 ft | 498 kts | 183° |
| 2026-04-26 06:13 | 43.01225 | -120.49810 | 35854 ft | 497 kts | 183° |
| 2026-04-26 06:14 | 42.94351 | -120.49930 | 35852 ft | 497 kts | 183° |
| 2026-04-26 06:14 | 42.87430 | -120.50051 | 35842 ft | 496 kts | 183° |
| 2026-04-26 06:15 | 42.80521 | -120.50171 | 35848 ft | 496 kts | 183° |
| 2026-04-26 06:15 | 42.73626 | -120.50290 | 35846 ft | 496 kts | 183° |
| 2026-04-26 06:16 | 42.66772 | -120.50407 | 35846 ft | 494 kts | 184° |
| 2026-04-26 06:16 | 42.59890 | -120.50525 | 35836 ft | 493 kts | 184° |
| 2026-04-26 06:17 | 42.53019 | -120.50644 | 35827 ft | 493 kts | 184° |
| 2026-04-26 06:17 | 42.46161 | -120.50377 | 35827 ft | 496 kts | 179° |
| 2026-04-26 06:18 | 42.39241 | -120.49716 | 35826 ft | 497 kts | 178° |
| 2026-04-26 06:18 | 42.32384 | -120.48997 | 35836 ft | 496 kts | 178° |
| 2026-04-26 06:19 | 42.25483 | -120.48274 | 35824 ft | 495 kts | 179° |
| 2026-04-26 06:19 | 42.18616 | -120.47570 | 35821 ft | 494 kts | 179° |
| 2026-04-26 06:20 | 42.11785 | -120.46877 | 35825 ft | 495 kts | 179° |
| 2026-04-26 06:20 | 42.04926 | -120.46181 | 35823 ft | 492 kts | 179° |
| 2026-04-26 06:21 | 41.98103 | -120.45490 | 35817 ft | 492 kts | 179° |
| 2026-04-26 06:21 | 41.91267 | -120.44799 | 35803 ft | 491 kts | 180° |
| 2026-04-26 06:22 | 41.84475 | -120.44114 | 35809 ft | 488 kts | 180° |
| 2026-04-26 06:22 | 41.77723 | -120.43434 | 35801 ft | 488 kts | 179° |
| 2026-04-26 06:23 | 41.70941 | -120.42754 | 35796 ft | 488 kts | 180° |
| 2026-04-26 06:23 | 41.64207 | -120.42079 | 35799 ft | 486 kts | 180° |
| 2026-04-26 06:24 | 41.57444 | -120.41403 | 35796 ft | 486 kts | 180° |
| 2026-04-26 06:24 | 41.50690 | -120.40730 | 35795 ft | 486 kts | 180° |
| 2026-04-26 06:25 | 41.43970 | -120.40061 | 35828 ft | 486 kts | 180° |
| 2026-04-26 06:25 | 41.37220 | -120.39392 | 35823 ft | 486 kts | 180° |
| 2026-04-26 06:26 | 41.30450 | -120.38721 | 35808 ft | 486 kts | 180° |
| 2026-04-26 06:26 | 41.23714 | -120.38055 | 35806 ft | 485 kts | 180° |
| 2026-04-26 06:27 | 41.16963 | -120.37388 | 35792 ft | 485 kts | 180° |
| 2026-04-26 06:27 | 41.10264 | -120.36728 | 35792 ft | 485 kts | 180° |
| 2026-04-26 06:28 | 41.03525 | -120.36065 | 35786 ft | 486 kts | 180° |
| 2026-04-26 06:28 | 40.96759 | -120.35402 | 35780 ft | 486 kts | 179° |
| 2026-04-26 06:29 | 40.90054 | -120.34744 | 35779 ft | 485 kts | 179° |
| 2026-04-26 06:29 | 40.83323 | -120.34085 | 35780 ft | 484 kts | 180° |
| 2026-04-26 06:30 | 40.76585 | -120.33429 | 35775 ft | 484 kts | 179° |
| 2026-04-26 06:30 | 40.69862 | -120.32775 | 35782 ft | 484 kts | 179° |
| 2026-04-26 06:31 | 40.63179 | -120.32126 | 35789 ft | 484 kts | 179° |
| 2026-04-26 06:31 | 40.56445 | -120.31473 | 35791 ft | 484 kts | 179° |
| 2026-04-26 06:32 | 40.49769 | -120.30827 | 35799 ft | 484 kts | 179° |
| 2026-04-26 06:32 | 40.43034 | -120.30177 | 35807 ft | 484 kts | 179° |
| 2026-04-26 06:33 | 40.36303 | -120.29529 | 35807 ft | 484 kts | 179° |
| 2026-04-26 06:33 | 40.29628 | -120.28888 | 35804 ft | 484 kts | 179° |
| 2026-04-26 06:34 | 40.22902 | -120.28242 | 35784 ft | 484 kts | 179° |
| 2026-04-26 06:34 | 40.16186 | -120.27599 | 35782 ft | 483 kts | 179° |
| 2026-04-26 06:35 | 40.09511 | -120.26961 | 35780 ft | 483 kts | 179° |
| 2026-04-26 06:35 | 40.02782 | -120.26319 | 35781 ft | 483 kts | 179° |
| 2026-04-26 06:36 | 39.96067 | -120.25679 | 35791 ft | 483 kts | 179° |
| 2026-04-26 06:36 | 39.89366 | -120.25042 | 35796 ft | 484 kts | 179° |
| 2026-04-26 06:37 | 39.82645 | -120.24405 | 35796 ft | 484 kts | 179° |
| 2026-04-26 06:37 | 39.75947 | -120.23772 | 35796 ft | 484 kts | 179° |
| 2026-04-26 06:38 | 39.69199 | -120.23135 | 35799 ft | 485 kts | 179° |
| 2026-04-26 06:38 | 39.62510 | -120.22505 | 35806 ft | 485 kts | 178° |
| 2026-04-26 06:39 | 39.55755 | -120.21868 | 35806 ft | 486 kts | 178° |
| 2026-04-26 06:39 | 39.49001 | -120.21233 | 35806 ft | 486 kts | 178° |
| 2026-04-26 06:40 | 39.42276 | -120.20604 | 35808 ft | 486 kts | 178° |
| 2026-04-26 06:40 | 39.35512 | -120.19970 | 35869 ft | 486 kts | 178° |
| 2026-04-26 06:41 | 39.28795 | -120.19343 | 35861 ft | 486 kts | 178° |
| 2026-04-26 06:41 | 39.22023 | -120.18713 | 35865 ft | 487 kts | 178° |
| 2026-04-26 06:42 | 39.15256 | -120.18084 | 35854 ft | 487 kts | 178° |
| 2026-04-26 06:42 | 39.08486 | -120.17455 | 35841 ft | 487 kts | 178° |
| 2026-04-26 06:43 | 39.01716 | -120.16827 | 35830 ft | 488 kts | 178° |
| 2026-04-26 06:43 | 38.94930 | -120.16200 | 35824 ft | 488 kts | 178° |
| 2026-04-26 06:44 | 38.88184 | -120.15579 | 35831 ft | 489 kts | 178° |
| 2026-04-26 06:44 | 38.81388 | -120.14953 | 35836 ft | 489 kts | 178° |
| 2026-04-26 06:45 | 38.74593 | -120.14327 | 35846 ft | 489 kts | 178° |
| 2026-04-26 06:45 | 38.67835 | -120.13707 | 35845 ft | 489 kts | 178° |
| 2026-04-26 06:46 | 38.61030 | -120.13083 | 35857 ft | 489 kts | 178° |
| 2026-04-26 06:46 | 38.54241 | -120.12463 | 35868 ft | 489 kts | 178° |
| 2026-04-26 06:47 | 38.47481 | -120.11847 | 35879 ft | 489 kts | 178° |
| 2026-04-26 06:47 | 38.40673 | -120.11228 | 35890 ft | 489 kts | 178° |
| 2026-04-26 06:48 | 38.33905 | -120.10613 | 35894 ft | 486 kts | 178° |
| 2026-04-26 06:48 | 38.27200 | -120.10004 | 35902 ft | 485 kts | 178° |
| 2026-04-26 06:49 | 38.20487 | -120.09015 | 35898 ft | 487 kts | 173° |
| 2026-04-26 06:49 | 38.13777 | -120.07592 | 35911 ft | 487 kts | 172° |
| 2026-04-26 06:50 | 38.07089 | -120.06104 | 35914 ft | 488 kts | 172° |
| 2026-04-26 06:50 | 38.00442 | -120.04629 | 35920 ft | 488 kts | 172° |
| 2026-04-26 06:51 | 37.94856 | -120.03401 | 35915 ft | 484 kts | 172° |
| 2026-04-26 06:51 | 37.88464 | -120.01995 | 35916 ft | 452 kts | 172° |
| 2026-04-26 06:51 | 37.85398 | -120.01322 | 35916 ft | 438 kts | 173° |
| 2026-04-26 06:52 | 37.79449 | -120.00027 | 35928 ft | 435 kts | 173° |
| 2026-04-26 06:52 | 37.73467 | -119.98732 | 35927 ft | 435 kts | 173° |
| 2026-04-26 06:53 | 37.67486 | -119.97434 | 35929 ft | 436 kts | 173° |
| 2026-04-26 06:53 | 37.61526 | -119.96141 | 35931 ft | 436 kts | 173° |
| 2026-04-26 06:54 | 37.55528 | -119.94841 | 35931 ft | 437 kts | 173° |
| 2026-04-26 06:54 | 37.49525 | -119.93542 | 35936 ft | 438 kts | 173° |
| 2026-04-26 06:55 | 37.43545 | -119.92251 | 35942 ft | 438 kts | 173° |
| 2026-04-26 06:55 | 37.37525 | -119.90953 | 35928 ft | 438 kts | 173° |
| 2026-04-26 06:56 | 37.31501 | -119.89655 | 35934 ft | 439 kts | 173° |
| 2026-04-26 06:56 | 37.25473 | -119.88360 | 35930 ft | 439 kts | 173° |
| 2026-04-26 06:57 | 37.19473 | -119.87073 | 35941 ft | 439 kts | 173° |
| 2026-04-26 06:57 | 37.13447 | -119.85783 | 35931 ft | 439 kts | 174° |
| 2026-04-26 06:58 | 37.07408 | -119.84491 | 35944 ft | 440 kts | 173° |
| 2026-04-26 06:58 | 37.01362 | -119.83200 | 35945 ft | 440 kts | 173° |
| 2026-04-26 06:59 | 36.95328 | -119.81914 | 35941 ft | 439 kts | 173° |
| 2026-04-26 06:59 | 36.89299 | -119.80630 | 35943 ft | 439 kts | 174° |
| 2026-04-26 07:00 | 36.83320 | -119.79359 | 36060 ft | 440 kts | 174° |
| 2026-04-26 07:00 | 36.80276 | -119.78716 | 36185 ft | 446 kts | 174° |
| 2026-04-26 07:00 | 36.77192 | -119.78065 | 36324 ft | 452 kts | 174° |
| 2026-04-26 07:01 | 36.74061 | -119.77403 | 36483 ft | 457 kts | 174° |
| 2026-04-26 07:01 | 36.70909 | -119.76738 | 36628 ft | 462 kts | 174° |
| 2026-04-26 07:01 | 36.67767 | -119.76074 | 36779 ft | 466 kts | 174° |
| 2026-04-26 07:01 | 36.64535 | -119.75390 | 37038 ft | 468 kts | 174° |
| 2026-04-26 07:02 | 36.61348 | -119.74714 | 37369 ft | 468 kts | 174° |
| 2026-04-26 07:02 | 36.58130 | -119.74033 | 37707 ft | 468 kts | 174° |
| 2026-04-26 07:02 | 36.54919 | -119.73354 | 38047 ft | 468 kts | 174° |
| 2026-04-26 07:02 | 36.51699 | -119.72674 | 38385 ft | 467 kts | 175° |
| 2026-04-26 07:03 | 36.48497 | -119.71999 | 38700 ft | 466 kts | 175° |
| 2026-04-26 07:03 | 36.45298 | -119.71326 | 38940 ft | 466 kts | 175° |
| 2026-04-26 07:03 | 36.42141 | -119.70663 | 39155 ft | 466 kts | 175° |
| 2026-04-26 07:03 | 36.38924 | -119.69988 | 39378 ft | 467 kts | 175° |
| 2026-04-26 07:04 | 36.35715 | -119.69315 | 39589 ft | 467 kts | 175° |
| 2026-04-26 07:04 | 36.32513 | -119.68644 | 39789 ft | 467 kts | 175° |
| 2026-04-26 07:04 | 36.29303 | -119.67972 | 39932 ft | 468 kts | 175° |
| 2026-04-26 07:04 | 36.26096 | -119.67301 | 39953 ft | 467 kts | 175° |
| 2026-04-26 07:05 | 36.19721 | -119.65968 | 39953 ft | 466 kts | 175° |
| 2026-04-26 07:05 | 36.13297 | -119.64628 | 39950 ft | 467 kts | 175° |